Observation data for Clyde on 07/19/2019      Previous  Date  Next       Current Mesonet Observations  Soil Data  Daily Summary Page  Observations in Plain Language
KCL2 190500Z 16012KT 28/18 A2995 RMK A01 T02760178  RH  055%=      5-min Rain = 0
KCL2 190501Z 17011G16KT 28/18 A2995 RMK A01 T02760178  RH  055%=      5-min Rain = 0
KCL2 190502Z 17010KT 28/18 A2995 RMK A01 T02760178  RH  055%=      5-min Rain = 0
KCL2 190503Z 17011KT 28/18 A2995 RMK A01 T02760178  RH  055%=      5-min Rain = 0
KCL2 190504Z 17011KT 28/18 A2995 RMK A01 T02760178  RH  055%=      5-min Rain = 0
KCL2 190505Z 17013KT 28/18 A2995 RMK A01 T02750178  RH  055%=      5-min Rain = 0
KCL2 190506Z 17011KT 28/18 A2995 RMK A01 T02750178  RH  055%=      5-min Rain = 0
KCL2 190507Z 17011KT 28/18 A2995 RMK A01 T02760178  RH  055%=      5-min Rain = 0
KCL2 190508Z 16010KT 28/18 A2995 RMK A01 T02760179  RH  055%=      5-min Rain = 0
KCL2 190509Z 17010KT 28/18 A2995 RMK A01 T02750179  RH  056%=      5-min Rain = 0
KCL2 190510Z 17011KT 28/18 A2994 RMK A01 T02750179  RH  056%=      5-min Rain = 0
KCL2 190511Z 16010KT 28/18 A2994 RMK A01 T02750179  RH  056%=      5-min Rain = 0
KCL2 190512Z 17011KT 28/18 A2995 RMK A01 T02750179  RH  056%=      5-min Rain = 0
KCL2 190513Z 16010KT 27/18 A2995 RMK A01 T02740179  RH  056%=      5-min Rain = 0
KCL2 190514Z 17009KT 27/18 A2995 RMK A01 T02740179  RH  056%=      5-min Rain = 0
KCL2 190515Z 17010KT 27/18 A2995 RMK A01 T02730179  RH  056%=      5-min Rain = 0
KCL2 190516Z 16011KT 27/18 A2995 RMK A01 T02730179  RH  056%=      5-min Rain = 0
KCL2 190517Z 17012KT 27/18 A2995 RMK A01 T02730179  RH  056%=      5-min Rain = 0
KCL2 190518Z 17012KT 27/18 A2995 RMK A01 T02730179  RH  056%=      5-min Rain = 0
KCL2 190519Z 17011KT 27/18 A2995 RMK A01 T02730179  RH  056%=      5-min Rain = 0
KCL2 190520Z 17010KT 27/18 A2995 RMK A01 T02730179  RH  056%=      5-min Rain = 0
KCL2 190521Z 17013KT 27/18 A2995 RMK A01 T02730179  RH  057%=      5-min Rain = 0
KCL2 190522Z 18012KT 27/18 A2995 RMK A01 T02730180  RH  057%=      5-min Rain = 0
KCL2 190523Z 17010KT 27/18 A2995 RMK A01 T02730180  RH  057%=      5-min Rain = 0
KCL2 190524Z 17008KT 27/18 A2995 RMK A01 T02730180  RH  057%=      5-min Rain = 0
KCL2 190525Z 17011KT 27/18 A2995 RMK A01 T02730180  RH  057%=      5-min Rain = 0
KCL2 190526Z 17010KT 27/18 A2995 RMK A01 T02730180  RH  057%=      5-min Rain = 0
KCL2 190527Z 17011KT 27/18 A2995 RMK A01 T02730180  RH  057%=      5-min Rain = 0
KCL2 190528Z 17011KT 27/18 A2995 RMK A01 T02720180  RH  057%=      5-min Rain = 0
KCL2 190529Z 17010KT 27/18 A2995 RMK A01 T02720180  RH  057%=      5-min Rain = 0
KCL2 190530Z 17009KT 27/18 A2995 RMK A01 T02720180  RH  057%=      5-min Rain = 0
KCL2 190531Z 17011KT 27/18 A2995 RMK A01 T02720180  RH  057%=      5-min Rain = 0
KCL2 190532Z 17010KT 27/18 A2995 RMK A01 T02720180  RH  057%=      5-min Rain = 0
KCL2 190533Z 17011KT 27/18 A2995 RMK A01 T02720180  RH  057%=      5-min Rain = 0
KCL2 190534Z 17011KT 27/18 A2995 RMK A01 T02720180  RH  057%=      5-min Rain = 0
KCL2 190535Z 17009KT 27/18 A2995 RMK A01 T02720180  RH  057%=      5-min Rain = 0
KCL2 190536Z 17010KT 27/18 A2995 RMK A01 T02720180  RH  057%=      5-min Rain = 0
KCL2 190537Z 17010KT 27/18 A2995 RMK A01 T02710180  RH  057%=      5-min Rain = 0
KCL2 190538Z 17010KT 27/18 A2995 RMK A01 T02720181  RH  058%=      5-min Rain = 0
KCL2 190539Z 17010KT 27/18 A2995 RMK A01 T02710181  RH  058%=      5-min Rain = 0
KCL2 190540Z 17011KT 27/18 A2995 RMK A01 T02710181  RH  058%=      5-min Rain = 0
KCL2 190541Z 17009KT 27/18 A2995 RMK A01 T02710181  RH  058%=      5-min Rain = 0
KCL2 190542Z 17010KT 27/18 A2995 RMK A01 T02710181  RH  058%=      5-min Rain = 0
KCL2 190543Z 17011KT 27/18 A2995 RMK A01 T02710181  RH  058%=      5-min Rain = 0
KCL2 190544Z 17009KT 27/18 A2995 RMK A01 T02710181  RH  058%=      5-min Rain = 0
KCL2 190545Z 17009KT 27/18 A2995 RMK A01 T02710181  RH  058%=      5-min Rain = 0
KCL2 190546Z 17010KT 27/18 A2995 RMK A01 T02710181  RH  058%=      5-min Rain = 0
KCL2 190547Z 17009KT 27/18 A2995 RMK A01 T02700181  RH  058%=      5-min Rain = 0
KCL2 190548Z 17009KT 27/18 A2995 RMK A01 T02700181  RH  058%=      5-min Rain = 0
KCL2 190549Z 17009KT 27/18 A2995 RMK A01 T02700182  RH  058%=      5-min Rain = 0
KCL2 190550Z 17008KT 27/18 A2995 RMK A01 T02700182  RH  059%=      5-min Rain = 0
KCL2 190551Z 17010KT 27/18 A2995 RMK A01 T02690182  RH  059%=      5-min Rain = 0
KCL2 190552Z 16008KT 27/18 A2995 RMK A01 T02690182  RH  059%=      5-min Rain = 0
KCL2 190553Z 17009KT 27/18 A2995 RMK A01 T02690182  RH  059%=      5-min Rain = 0
KCL2 190554Z 17010KT 27/18 A2995 RMK A01 T02690182  RH  059%=      5-min Rain = 0
KCL2 190555Z 17010KT 27/18 A2995 RMK A01 T02690182  RH  059%=      5-min Rain = 0
KCL2 190556Z 17009KT 27/18 A2995 RMK A01 T02690182  RH  059%=      5-min Rain = 0
KCL2 190557Z 17011KT 27/18 A2995 RMK A01 T02690182  RH  059%=      5-min Rain = 0
KCL2 190558Z 16010KT 27/18 A2995 RMK A01 T02690182  RH  059%=      5-min Rain = 0
KCL2 190559Z 16010KT 27/18 A2995 RMK A01 T02690183  RH  059%=      5-min Rain = 0
KCL2 190600Z 16008KT 27/18 A2995 RMK A01 T02690183  RH  059%=      5-min Rain = 0
KCL2 190601Z 16009KT 27/18 A2995 RMK A01 T02690183  RH  059%=      5-min Rain = 0
KCL2 190602Z 17010KT 27/18 A2995 RMK A01 T02690183  RH  059%=      5-min Rain = 0
KCL2 190603Z 16010KT 27/18 A2995 RMK A01 T02690183  RH  059%=      5-min Rain = 0
KCL2 190604Z 16009KT 27/18 A2995 RMK A01 T02690183  RH  059%=      5-min Rain = 0
KCL2 190605Z 17012KT 27/18 A2995 RMK A01 T02690183  RH  059%=      5-min Rain = 0
KCL2 190606Z 17010KT 27/18 A2995 RMK A01 T02700184  RH  059%=      5-min Rain = 0
KCL2 190607Z 16011KT 27/18 A2995 RMK A01 T02700183  RH  059%=      5-min Rain = 0
KCL2 190608Z 17011KT 27/18 A2995 RMK A01 T02700183  RH  059%=      5-min Rain = 0
KCL2 190609Z 17012KT 27/18 A2995 RMK A01 T02700184  RH  059%=      5-min Rain = 0
KCL2 190610Z 17010KT 27/18 A2995 RMK A01 T02700184  RH  059%=      5-min Rain = 0
KCL2 190611Z 17010KT 27/19 A2995 RMK A01 T02710185  RH  059%=      5-min Rain = 0
KCL2 190612Z 16013KT 27/19 A2995 RMK A01 T02710185  RH  059%=      5-min Rain = 0
KCL2 190613Z 17011G16KT 27/19 A2995 RMK A01 T02700185  RH  060%=      5-min Rain = 0
KCL2 190614Z 17010KT 27/19 A2995 RMK A01 T02700185  RH  060%=      5-min Rain = 0
KCL2 190615Z 17012KT 27/19 A2995 RMK A01 T02700185  RH  060%=      5-min Rain = 0
KCL2 190616Z 17012KT 27/19 A2995 RMK A01 T02700185  RH  060%=      5-min Rain = 0
KCL2 190617Z 17012KT 27/19 A2995 RMK A01 T02700185  RH  060%=      5-min Rain = 0
KCL2 190618Z 17014G19KT 27/19 A2995 RMK A01 T02700186  RH  060%=      5-min Rain = 0
KCL2 190619Z 17013KT 27/19 A2995 RMK A01 T02710186  RH  060%=      5-min Rain = 0
KCL2 190620Z 17011KT 27/19 A2995 RMK A01 T02710186  RH  060%=      5-min Rain = 0
KCL2 190621Z 18011KT 27/19 A2995 RMK A01 T02720186  RH  060%=      5-min Rain = 0
KCL2 190622Z 17011KT 27/19 A2995 RMK A01 T02710187  RH  060%=      5-min Rain = 0
KCL2 190623Z 17013KT 27/19 A2995 RMK A01 T02700186  RH  060%=      5-min Rain = 0
KCL2 190624Z 17012KT 27/19 A2995 RMK A01 T02700187  RH  060%=      5-min Rain = 0
KCL2 190625Z 17012KT 27/19 A2995 RMK A01 T02710187  RH  060%=      5-min Rain = 0
KCL2 190626Z 18010KT 27/19 A2995 RMK A01 T02710187  RH  060%=      5-min Rain = 0
KCL2 190627Z 18012KT 27/19 A2995 RMK A01 T02710188  RH  060%=      5-min Rain = 0
KCL2 190628Z 18013KT 27/19 A2995 RMK A01 T02710188  RH  060%=      5-min Rain = 0
KCL2 190629Z 17013KT 27/19 A2995 RMK A01 T02710188  RH  060%=      5-min Rain = 0
KCL2 190630Z 18015G21KT 27/19 A2995 RMK A01 T02710188  RH  060%=      5-min Rain = 0
KCL2 190631Z 17015KT 27/19 A2995 RMK A01 T02720189  RH  060%=      5-min Rain = 0
KCL2 190632Z 18011KT 27/19 A2995 RMK A01 T02730189  RH  060%=      5-min Rain = 0
KCL2 190633Z 18012KT 27/19 A2995 RMK A01 T02720189  RH  060%=      5-min Rain = 0
KCL2 190634Z 17013G18KT 27/19 A2996 RMK A01 T02720189  RH  060%=      5-min Rain = 0
KCL2 190635Z 17012KT 27/19 A2995 RMK A01 T02720189  RH  061%=      5-min Rain = 0
KCL2 190636Z 17010KT 27/19 A2995 RMK A01 T02720189  RH  060%=      5-min Rain = 0
KCL2 190637Z 18013KT 27/19 A2996 RMK A01 T02720189  RH  061%=      5-min Rain = 0
KCL2 190638Z 18010KT 27/19 A2995 RMK A01 T02710189  RH  061%=      5-min Rain = 0
KCL2 190639Z 18013KT 27/19 A2995 RMK A01 T02700189  RH  061%=      5-min Rain = 0
KCL2 190640Z 17012KT 27/19 A2995 RMK A01 T02700189  RH  061%=      5-min Rain = 0
KCL2 190641Z 18014KT 27/19 A2995 RMK A01 T02700189  RH  061%=      5-min Rain = 0
KCL2 190642Z 18011KT 27/19 A2995 RMK A01 T02700189  RH  061%=      5-min Rain = 0
KCL2 190643Z 17014G19KT 27/19 A2995 RMK A01 T02700189  RH  061%=      5-min Rain = 0
KCL2 190644Z 18012KT 27/19 A2995 RMK A01 T02700189  RH  061%=      5-min Rain = 0
KCL2 190645Z 17012KT 27/19 A2995 RMK A01 T02700190  RH  061%=      5-min Rain = 0
KCL2 190646Z 18012KT 27/19 A2995 RMK A01 T02700190  RH  062%=      5-min Rain = 0
KCL2 190647Z 18013KT 27/19 A2995 RMK A01 T02700190  RH  062%=      5-min Rain = 0
KCL2 190648Z 17011KT 27/19 A2995 RMK A01 T02690190  RH  062%=      5-min Rain = 0
KCL2 190649Z 17010KT 27/19 A2995 RMK A01 T02690190  RH  062%=      5-min Rain = 0
KCL2 190650Z 17014KT 27/19 A2995 RMK A01 T02690190  RH  062%=      5-min Rain = 0
KCL2 190651Z 18013KT 27/19 A2995 RMK A01 T02680190  RH  062%=      5-min Rain = 0
KCL2 190652Z 17008KT 27/19 A2995 RMK A01 T02680190  RH  062%=      5-min Rain = 0
KCL2 190653Z 18010KT 27/19 A2995 RMK A01 T02680190  RH  062%=      5-min Rain = 0
KCL2 190654Z 17011KT 27/19 A2995 RMK A01 T02680190  RH  062%=      5-min Rain = 0
KCL2 190655Z 17010KT 27/19 A2995 RMK A01 T02670190  RH  063%=      5-min Rain = 0
KCL2 190656Z 17011KT 27/19 A2995 RMK A01 T02670190  RH  063%=      5-min Rain = 0
KCL2 190657Z 18008KT 27/19 A2995 RMK A01 T02670191  RH  063%=      5-min Rain = 0
KCL2 190658Z 18011KT 27/19 A2995 RMK A01 T02660190  RH  063%=      5-min Rain = 0
KCL2 190659Z 18013KT 27/19 A2995 RMK A01 T02660190  RH  063%=      5-min Rain = 0
KCL2 190700Z 17010KT 27/19 A2996 RMK A01 T02660190  RH  063%=      5-min Rain = 0
KCL2 190701Z 18009KT 27/19 A2996 RMK A01 T02660190  RH  063%=      5-min Rain = 0
KCL2 190702Z 18011KT 27/19 A2996 RMK A01 T02650191  RH  063%=      5-min Rain = 0
KCL2 190703Z 17009KT 27/19 A2996 RMK A01 T02650191  RH  064%=      5-min Rain = 0
KCL2 190704Z 18011KT 27/19 A2996 RMK A01 T02650191  RH  064%=      5-min Rain = 0
KCL2 190705Z 18010KT 27/19 A2996 RMK A01 T02650191  RH  064%=      5-min Rain = 0
KCL2 190706Z 18011KT 27/19 A2996 RMK A01 T02650191  RH  064%=      5-min Rain = 0
KCL2 190707Z 18012KT 27/19 A2996 RMK A01 T02650191  RH  064%=      5-min Rain = 0
KCL2 190708Z 17010KT 27/19 A2996 RMK A01 T02650191  RH  064%=      5-min Rain = 0
KCL2 190709Z 18010KT 26/19 A2996 RMK A01 T02640191  RH  064%=      5-min Rain = 0
KCL2 190710Z 18011KT 26/19 A2996 RMK A01 T02640191  RH  064%=      5-min Rain = 0
KCL2 190711Z 17010KT 27/19 A2996 RMK A01 T02650191  RH  064%=      5-min Rain = 0
KCL2 190712Z 18013KT 27/19 A2996 RMK A01 T02650192  RH  064%=      5-min Rain = 0
KCL2 190713Z 17014KT 27/19 A2996 RMK A01 T02650192  RH  064%=      5-min Rain = 0
KCL2 190714Z 18013KT 26/19 A2996 RMK A01 T02640192  RH  064%=      5-min Rain = 0
KCL2 190715Z 18012KT 27/19 A2996 RMK A01 T02650192  RH  064%=      5-min Rain = 0
KCL2 190716Z 18013KT 27/19 A2996 RMK A01 T02650192  RH  064%=      5-min Rain = 0
KCL2 190717Z 18012KT 27/19 A2996 RMK A01 T02650192  RH  064%=      5-min Rain = 0
KCL2 190718Z 18012KT 26/19 A2996 RMK A01 T02640192  RH  064%=      5-min Rain = 0
KCL2 190719Z 18012KT 27/19 A2996 RMK A01 T02650193  RH  065%=      5-min Rain = 0
KCL2 190720Z 18010KT 26/19 A2996 RMK A01 T02640193  RH  065%=      5-min Rain = 0
KCL2 190721Z 18011KT 26/19 A2996 RMK A01 T02640193  RH  065%=      5-min Rain = 0
KCL2 190722Z 17010KT 26/19 A2996 RMK A01 T02640193  RH  065%=      5-min Rain = 0
KCL2 190723Z 17012KT 26/19 A2996 RMK A01 T02630193  RH  066%=      5-min Rain = 0
KCL2 190724Z 17011KT 26/19 A2996 RMK A01 T02620193  RH  066%=      5-min Rain = 0
KCL2 190725Z 18011KT 26/19 A2996 RMK A01 T02620193  RH  066%=      5-min Rain = 0
KCL2 190726Z 18012KT 26/19 A2996 RMK A01 T02620194  RH  066%=      5-min Rain = 0
KCL2 190727Z 18014G19KT 26/20 A2996 RMK A01 T02630195  RH  066%=      5-min Rain = 0
KCL2 190728Z 17013G19KT 26/19 A2996 RMK A01 T02620194  RH  066%=      5-min Rain = 0
KCL2 190729Z 18011G16KT 26/20 A2996 RMK A01 T02630195  RH  066%=      5-min Rain = 0
KCL2 190730Z 18012KT 26/20 A2996 RMK A01 T02630195  RH  066%=      5-min Rain = 0
KCL2 190731Z 18011KT 26/20 A2996 RMK A01 T02630196  RH  067%=      5-min Rain = 0
KCL2 190732Z 18012KT 26/20 A2996 RMK A01 T02630196  RH  067%=      5-min Rain = 0
KCL2 190733Z 17011KT 26/20 A2996 RMK A01 T02620196  RH  067%=      5-min Rain = 0
KCL2 190734Z 17011KT 26/20 A2996 RMK A01 T02620197  RH  067%=      5-min Rain = 0
KCL2 190735Z 18013G18KT 26/20 A2996 RMK A01 T02620197  RH  067%=      5-min Rain = 0
KCL2 190736Z 18014KT 26/20 A2996 RMK A01 T02620197  RH  067%=      5-min Rain = 0
KCL2 190737Z 18012KT 26/20 A2996 RMK A01 T02630198  RH  067%=      5-min Rain = 0
KCL2 190738Z 18013KT 26/20 A2996 RMK A01 T02630198  RH  067%=      5-min Rain = 0
KCL2 190739Z 18012KT 26/20 A2996 RMK A01 T02630198  RH  068%=      5-min Rain = 0
KCL2 190740Z 17012KT 26/20 A2996 RMK A01 T02620198  RH  068%=      5-min Rain = 0
KCL2 190741Z 18015KT 26/20 A2996 RMK A01 T02620198  RH  068%=      5-min Rain = 0
KCL2 190742Z 17012KT 26/20 A2996 RMK A01 T02620198  RH  068%=      5-min Rain = 0
KCL2 190743Z 18013KT 26/20 A2996 RMK A01 T02620199  RH  068%=      5-min Rain = 0
KCL2 190744Z 17012G17KT 26/20 A2996 RMK A01 T02620199  RH  068%=      5-min Rain = 0
KCL2 190745Z 18012KT 26/20 A2996 RMK A01 T02620199  RH  068%=      5-min Rain = 0
KCL2 190746Z 18012KT 26/20 A2996 RMK A01 T02610199  RH  069%=      5-min Rain = 0
KCL2 190747Z 17012KT 26/20 A2996 RMK A01 T02610199  RH  069%=      5-min Rain = 0
KCL2 190748Z 17014G20KT 26/20 A2996 RMK A01 T02610200  RH  069%=      5-min Rain = 0
KCL2 190749Z 17013KT 26/20 A2996 RMK A01 T02610200  RH  069%=      5-min Rain = 0
KCL2 190750Z 18011G16KT 26/20 A2996 RMK A01 T02610200  RH  069%=      5-min Rain = 0
KCL2 190751Z 17012KT 26/20 A2996 RMK A01 T02610200  RH  069%=      5-min Rain = 0
KCL2 190752Z 18013G18KT 26/20 A2996 RMK A01 T02610200  RH  069%=      5-min Rain = 0
KCL2 190753Z 18012KT 26/20 A2996 RMK A01 T02600200  RH  069%=      5-min Rain = 0
KCL2 190754Z 17013KT 26/20 A2996 RMK A01 T02600200  RH  069%=      5-min Rain = 0
KCL2 190755Z 18013KT 26/20 A2996 RMK A01 T02610201  RH  070%=      5-min Rain = 0
KCL2 190756Z 18014KT 26/20 A2996 RMK A01 T02600201  RH  070%=      5-min Rain = 0
KCL2 190757Z 18012KT 26/20 A2996 RMK A01 T02610201  RH  070%=      5-min Rain = 0
KCL2 190758Z 17011G16KT 26/20 A2996 RMK A01 T02610202  RH  070%=      5-min Rain = 0
KCL2 190759Z 18012KT 26/20 A2996 RMK A01 T02600202  RH  070%=      5-min Rain = 0
KCL2 190800Z 17014KT 26/20 A2996 RMK A01 T02600202  RH  070%=      5-min Rain = 0
KCL2 190801Z 18014KT 26/20 A2996 RMK A01 T02600202  RH  071%=      5-min Rain = 0
KCL2 190802Z 18012G18KT 26/20 A2995 RMK A01 T02590202  RH  071%=      5-min Rain = 0
KCL2 190803Z 17012KT 26/20 A2995 RMK A01 T02590202  RH  071%=      5-min Rain = 0
KCL2 190804Z 17014KT 26/20 A2995 RMK A01 T02600203  RH  071%=      5-min Rain = 0
KCL2 190805Z 17016KT 26/20 A2995 RMK A01 T02600203  RH  071%=      5-min Rain = 0
KCL2 190806Z 17011KT 26/20 A2995 RMK A01 T02610203  RH  071%=      5-min Rain = 0
KCL2 190807Z 17013KT 26/20 A2995 RMK A01 T02600204  RH  071%=      5-min Rain = 0
KCL2 190808Z 18014KT 26/20 A2995 RMK A01 T02600204  RH  071%=      5-min Rain = 0
KCL2 190809Z 17014G19KT 26/20 A2995 RMK A01 T02600204  RH  071%=      5-min Rain = 0
KCL2 190810Z 17013KT 26/20 A2995 RMK A01 T02600204  RH  071%=      5-min Rain = 0
KCL2 190811Z 17012G17KT 26/20 A2995 RMK A01 T02600204  RH  071%=      5-min Rain = 0
KCL2 190812Z 17013G18KT 26/20 A2995 RMK A01 T02600204  RH  071%=      5-min Rain = 0
KCL2 190813Z 17014KT 26/20 A2995 RMK A01 T02590204  RH  071%=      5-min Rain = 0
KCL2 190814Z 17012KT 26/20 A2995 RMK A01 T02590204  RH  072%=      5-min Rain = 0
KCL2 190815Z 17012KT 26/21 A2996 RMK A01 T02600205  RH  072%=      5-min Rain = 0
KCL2 190816Z 18012KT 26/21 A2995 RMK A01 T02590205  RH  072%=      5-min Rain = 0
KCL2 190817Z 17012G19KT 26/21 A2995 RMK A01 T02590205  RH  072%=      5-min Rain = 0
KCL2 190818Z 17011KT 26/21 A2996 RMK A01 T02590205  RH  072%=      5-min Rain = 0
KCL2 190819Z 17013KT 26/21 A2995 RMK A01 T02590205  RH  072%=      5-min Rain = 0
KCL2 190820Z 17010KT 26/21 A2996 RMK A01 T02590205  RH  072%=      5-min Rain = 0
KCL2 190821Z 17013G20KT 26/21 A2996 RMK A01 T02580205  RH  073%=      5-min Rain = 0
KCL2 190822Z 17014G20KT 26/21 A2995 RMK A01 T02580205  RH  073%=      5-min Rain = 0
KCL2 190823Z 17013KT 26/21 A2996 RMK A01 T02580205  RH  073%=      5-min Rain = 0
KCL2 190824Z 18011G16KT 26/21 A2996 RMK A01 T02580206  RH  073%=      5-min Rain = 0
KCL2 190825Z 17012KT 26/21 A2996 RMK A01 T02580206  RH  073%=      5-min Rain = 0
KCL2 190826Z 17013KT 26/21 A2996 RMK A01 T02580206  RH  073%=      5-min Rain = 0
KCL2 190827Z 17013G18KT 26/21 A2995 RMK A01 T02570206  RH  073%=      5-min Rain = 0
KCL2 190828Z 17015G21KT 26/21 A2995 RMK A01 T02570206  RH  073%=      5-min Rain = 0
KCL2 190829Z 17012G17KT 26/21 A2996 RMK A01 T02570206  RH  073%=      5-min Rain = 0
KCL2 190830Z 17012G17KT 26/21 A2996 RMK A01 T02570206  RH  073%=      5-min Rain = 0
KCL2 190831Z 17011KT 26/21 A2996 RMK A01 T02570206  RH  073%=      5-min Rain = 0
KCL2 190832Z 17013G18KT 26/21 A2995 RMK A01 T02570206  RH  073%=      5-min Rain = 0
KCL2 190833Z 17016G21KT 26/21 A2995 RMK A01 T02570206  RH  073%=      5-min Rain = 0
KCL2 190834Z 18014KT 26/21 A2996 RMK A01 T02580206  RH  073%=      5-min Rain = 0
KCL2 190835Z 17014KT 26/21 A2996 RMK A01 T02580206  RH  073%=      5-min Rain = 0
KCL2 190836Z 17014KT 26/21 A2996 RMK A01 T02580206  RH  073%=      5-min Rain = 0
KCL2 190837Z 17012G17KT 26/21 A2996 RMK A01 T02570206  RH  073%=      5-min Rain = 0
KCL2 190838Z 17013G19KT 26/21 A2996 RMK A01 T02580206  RH  073%=      5-min Rain = 0
KCL2 190839Z 17014KT 26/21 A2996 RMK A01 T02580206  RH  073%=      5-min Rain = 0
KCL2 190840Z 17014KT 26/21 A2996 RMK A01 T02580206  RH  073%=      5-min Rain = 0
KCL2 190841Z 18011KT 26/21 A2996 RMK A01 T02570206  RH  073%=      5-min Rain = 0
KCL2 190842Z 18012KT 26/21 A2996 RMK A01 T02570206  RH  073%=      5-min Rain = 0
KCL2 190843Z 18014KT 26/21 A2996 RMK A01 T02560206  RH  074%=      5-min Rain = 0
KCL2 190844Z 17014G20KT 26/21 A2996 RMK A01 T02560206  RH  074%=      5-min Rain = 0
KCL2 190845Z 17013KT 26/21 A2996 RMK A01 T02560206  RH  074%=      5-min Rain = 0
KCL2 190846Z 18012KT 26/21 A2996 RMK A01 T02560206  RH  074%=      5-min Rain = 0
KCL2 190847Z 17010KT 26/21 A2996 RMK A01 T02560206  RH  074%=      5-min Rain = 0
KCL2 190848Z 18011KT 26/21 A2996 RMK A01 T02550206  RH  074%=      5-min Rain = 0
KCL2 190849Z 18011KT 25/21 A2996 RMK A01 T02540206  RH  075%=      5-min Rain = 0
KCL2 190850Z 17012KT 25/21 A2996 RMK A01 T02540206  RH  075%=      5-min Rain = 0
KCL2 190851Z 17014KT 25/21 A2996 RMK A01 T02540206  RH  075%=      5-min Rain = 0
KCL2 190852Z 18013KT 25/21 A2996 RMK A01 T02540206  RH  075%=      5-min Rain = 0
KCL2 190853Z 17012KT 25/21 A2996 RMK A01 T02540206  RH  075%=      5-min Rain = 0
KCL2 190854Z 18011KT 25/21 A2996 RMK A01 T02540206  RH  075%=      5-min Rain = 0
KCL2 190855Z 17013KT 25/21 A2996 RMK A01 T02540206  RH  075%=      5-min Rain = 0
KCL2 190856Z 17013G18KT 25/21 A2996 RMK A01 T02530206  RH  075%=      5-min Rain = 0
KCL2 190857Z 18010KT 25/21 A2996 RMK A01 T02540206  RH  075%=      5-min Rain = 0
KCL2 190858Z 17011KT 25/21 A2996 RMK A01 T02530206  RH  075%=      5-min Rain = 0
KCL2 190859Z 18014KT 25/21 A2996 RMK A01 T02530206  RH  075%=      5-min Rain = 0
KCL2 190900Z 18014KT 25/21 A2996 RMK A01 T02530206  RH  075%=      5-min Rain = 0
KCL2 190901Z 17014KT 25/21 A2996 RMK A01 T02530206  RH  075%=      5-min Rain = 0
KCL2 190902Z 18015KT 25/21 A2996 RMK A01 T02530206  RH  075%=      5-min Rain = 0
KCL2 190903Z 17013KT 25/21 A2996 RMK A01 T02530206  RH  075%=      5-min Rain = 0
KCL2 190904Z 18013KT 25/21 A2996 RMK A01 T02530206  RH  075%=      5-min Rain = 0
KCL2 190905Z 17012KT 25/21 A2996 RMK A01 T02530206  RH  075%=      5-min Rain = 0
KCL2 190906Z 18012KT 25/21 A2996 RMK A01 T02530206  RH  075%=      5-min Rain = 0
KCL2 190907Z 18011KT 25/21 A2995 RMK A01 T02530206  RH  075%=      5-min Rain = 0
KCL2 190908Z 18012KT 25/21 A2996 RMK A01 T02520206  RH  075%=      5-min Rain = 0
KCL2 190909Z 17014KT 25/21 A2996 RMK A01 T02520206  RH  076%=      5-min Rain = 0
KCL2 190910Z 18012KT 25/21 A2996 RMK A01 T02520205  RH  076%=      5-min Rain = 0
KCL2 190911Z 18011KT 25/21 A2996 RMK A01 T02520205  RH  075%=      5-min Rain = 0
KCL2 190912Z 18010KT 25/21 A2996 RMK A01 T02520206  RH  076%=      5-min Rain = 0
KCL2 190913Z 18014KT 25/21 A2996 RMK A01 T02510206  RH  076%=      5-min Rain = 0
KCL2 190914Z 17012KT 25/21 A2996 RMK A01 T02510206  RH  076%=      5-min Rain = 0
KCL2 190915Z 18011G16KT 25/21 A2996 RMK A01 T02520206  RH  076%=      5-min Rain = 0
KCL2 190916Z 18014KT 25/21 A2996 RMK A01 T02520206  RH  076%=      5-min Rain = 0
KCL2 190917Z 18013KT 25/21 A2996 RMK A01 T02520206  RH  076%=      5-min Rain = 0
KCL2 190918Z 18008KT 25/21 A2996 RMK A01 T02520206  RH  076%=      5-min Rain = 0
KCL2 190919Z 18008KT 25/21 A2996 RMK A01 T02500205  RH  076%=      5-min Rain = 0
KCL2 190920Z 18010KT 25/21 A2996 RMK A01 T02490205  RH  077%=      5-min Rain = 0
KCL2 190921Z 18011KT 25/21 A2996 RMK A01 T02490205  RH  077%=      5-min Rain = 0
KCL2 190922Z 18011KT 25/21 A2996 RMK A01 T02490206  RH  077%=      5-min Rain = 0
KCL2 190923Z 18010KT 25/21 A2996 RMK A01 T02490205  RH  077%=      5-min Rain = 0
KCL2 190924Z 18008KT 25/21 A2996 RMK A01 T02490205  RH  077%=      5-min Rain = 0
KCL2 190925Z 18012KT 25/21 A2996 RMK A01 T02490206  RH  077%=      5-min Rain = 0
KCL2 190926Z 18010KT 25/21 A2996 RMK A01 T02490205  RH  077%=      5-min Rain = 0
KCL2 190927Z 18009KT 25/21 A2996 RMK A01 T02490205  RH  077%=      5-min Rain = 0
KCL2 190928Z 18010KT 25/21 A2996 RMK A01 T02480205  RH  077%=      5-min Rain = 0
KCL2 190929Z 18008KT 25/21 A2996 RMK A01 T02480205  RH  077%=      5-min Rain = 0
KCL2 190930Z 18009KT 25/21 A2996 RMK A01 T02470205  RH  077%=      5-min Rain = 0
KCL2 190931Z 18011KT 25/21 A2996 RMK A01 T02470205  RH  077%=      5-min Rain = 0
KCL2 190932Z 18012KT 25/21 A2996 RMK A01 T02470205  RH  077%=      5-min Rain = 0
KCL2 190933Z 17009KT 25/21 A2996 RMK A01 T02470205  RH  077%=      5-min Rain = 0
KCL2 190934Z 17009KT 25/21 A2996 RMK A01 T02480205  RH  077%=      5-min Rain = 0
KCL2 190935Z 17011KT 25/21 A2996 RMK A01 T02470205  RH  077%=      5-min Rain = 0
KCL2 190936Z 18009KT 25/21 A2996 RMK A01 T02470205  RH  077%=      5-min Rain = 0
KCL2 190937Z 17009KT 25/21 A2996 RMK A01 T02470205  RH  078%=      5-min Rain = 0
KCL2 190938Z 18009KT 25/21 A2996 RMK A01 T02470205  RH  077%=      5-min Rain = 0
KCL2 190939Z 17010KT 25/21 A2996 RMK A01 T02470205  RH  078%=      5-min Rain = 0
KCL2 190940Z 18010KT 25/21 A2996 RMK A01 T02460205  RH  078%=      5-min Rain = 0
KCL2 190941Z 18012KT 25/21 A2996 RMK A01 T02460205  RH  078%=      5-min Rain = 0
KCL2 190942Z 18010KT 25/20 A2996 RMK A01 T02460204  RH  078%=      5-min Rain = 0
KCL2 190943Z 18009KT 25/21 A2996 RMK A01 T02460205  RH  078%=      5-min Rain = 0
KCL2 190944Z 18010KT 25/21 A2996 RMK A01 T02460205  RH  078%=      5-min Rain = 0
KCL2 190945Z 18009KT 25/21 A2996 RMK A01 T02460205  RH  078%=      5-min Rain = 0
KCL2 190946Z 18013KT 25/21 A2996 RMK A01 T02460205  RH  078%=      5-min Rain = 0
KCL2 190947Z 18010KT 25/20 A2996 RMK A01 T02450204  RH  078%=      5-min Rain = 0
KCL2 190948Z 18010KT 25/20 A2996 RMK A01 T02450204  RH  078%=      5-min Rain = 0
KCL2 190949Z 18009KT 25/21 A2996 RMK A01 T02450205  RH  078%=      5-min Rain = 0
KCL2 190950Z 18011KT 25/21 A2996 RMK A01 T02450205  RH  078%=      5-min Rain = 0
KCL2 190951Z 18010KT 25/21 A2996 RMK A01 T02450205  RH  078%=      5-min Rain = 0
KCL2 190952Z 17010KT 25/21 A2996 RMK A01 T02450205  RH  078%=      5-min Rain = 0
KCL2 190953Z 17012KT 25/21 A2996 RMK A01 T02450205  RH  078%=      5-min Rain = 0
KCL2 190954Z 18011G16KT 24/20 A2996 RMK A01 T02440204  RH  078%=      5-min Rain = 0
KCL2 190955Z 17010G15KT 25/20 A2996 RMK A01 T02450204  RH  078%=      5-min Rain = 0
KCL2 190956Z 18011KT 25/21 A2996 RMK A01 T02450205  RH  078%=      5-min Rain = 0
KCL2 190957Z 18011KT 24/20 A2996 RMK A01 T02440204  RH  078%=      5-min Rain = 0
KCL2 190958Z 17009KT 24/21 A2996 RMK A01 T02440205  RH  078%=      5-min Rain = 0
KCL2 190959Z 17009KT 24/21 A2996 RMK A01 T02440205  RH  079%=      5-min Rain = 0
KCL2 191000Z 17007KT 24/20 A2996 RMK A01 T02430204  RH  079%=      5-min Rain = 0
KCL2 191001Z 17008KT 24/20 A2996 RMK A01 T02430204  RH  079%=      5-min Rain = 0
KCL2 191002Z 18009KT 24/20 A2996 RMK A01 T02420204  RH  079%=      5-min Rain = 0
KCL2 191003Z 18008KT 24/20 A2996 RMK A01 T02420204  RH  079%=      5-min Rain = 0
KCL2 191004Z 18009KT 24/20 A2996 RMK A01 T02420204  RH  079%=      5-min Rain = 0
KCL2 191005Z 18009KT 24/20 A2996 RMK A01 T02410204  RH  080%=      5-min Rain = 0
KCL2 191006Z 18008KT 24/20 A2996 RMK A01 T02420204  RH  080%=      5-min Rain = 0
KCL2 191007Z 18010KT 24/20 A2996 RMK A01 T02420204  RH  079%=      5-min Rain = 0
KCL2 191008Z 17010KT 24/20 A2996 RMK A01 T02420204  RH  079%=      5-min Rain = 0
KCL2 191009Z 18010KT 24/20 A2996 RMK A01 T02420204  RH  079%=      5-min Rain = 0
KCL2 191010Z 18008KT 24/20 A2996 RMK A01 T02420204  RH  079%=      5-min Rain = 0
KCL2 191011Z 18009KT 24/20 A2996 RMK A01 T02420204  RH  079%=      5-min Rain = 0
KCL2 191012Z 17008KT 24/20 A2996 RMK A01 T02410204  RH  080%=      5-min Rain = 0
KCL2 191013Z 17011KT 24/20 A2996 RMK A01 T02410203  RH  080%=      5-min Rain = 0
KCL2 191014Z 18009KT 24/20 A2996 RMK A01 T02410204  RH  080%=      5-min Rain = 0
KCL2 191015Z 18009KT 24/20 A2996 RMK A01 T02410204  RH  080%=      5-min Rain = 0
KCL2 191016Z 17010KT 24/20 A2996 RMK A01 T02410204  RH  080%=      5-min Rain = 0
KCL2 191017Z 18008KT 24/20 A2996 RMK A01 T02410204  RH  080%=      5-min Rain = 0
KCL2 191018Z 18007KT 24/20 A2996 RMK A01 T02400203  RH  080%=      5-min Rain = 0
KCL2 191019Z 18010KT 24/20 A2996 RMK A01 T02400203  RH  080%=      5-min Rain = 0
KCL2 191020Z 18008KT 24/20 A2996 RMK A01 T02400203  RH  080%=      5-min Rain = 0
KCL2 191021Z 18007KT 24/20 A2996 RMK A01 T02390203  RH  080%=      5-min Rain = 0
KCL2 191022Z 18009KT 24/20 A2996 RMK A01 T02390203  RH  080%=      5-min Rain = 0
KCL2 191023Z 18008KT 24/20 A2996 RMK A01 T02390203  RH  081%=      5-min Rain = 0
KCL2 191024Z 18009KT 24/20 A2996 RMK A01 T02390203  RH  080%=      5-min Rain = 0
KCL2 191025Z 18008KT 24/20 A2996 RMK A01 T02390203  RH  080%=      5-min Rain = 0
KCL2 191026Z 17008KT 24/20 A2996 RMK A01 T02380203  RH  080%=      5-min Rain = 0
KCL2 191027Z 18007KT 24/20 A2996 RMK A01 T02380203  RH  081%=      5-min Rain = 0
KCL2 191028Z 18008KT 24/20 A2996 RMK A01 T02380203  RH  081%=      5-min Rain = 0
KCL2 191029Z 18009KT 24/20 A2996 RMK A01 T02380203  RH  081%=      5-min Rain = 0
KCL2 191030Z 18008KT 24/20 A2996 RMK A01 T02370203  RH  081%=      5-min Rain = 0
KCL2 191031Z 18009KT 24/20 A2996 RMK A01 T02370203  RH  081%=      5-min Rain = 0
KCL2 191032Z 17010KT 24/20 A2996 RMK A01 T02370203  RH  081%=      5-min Rain = 0
KCL2 191033Z 17009KT 24/20 A2996 RMK A01 T02370202  RH  081%=      5-min Rain = 0
KCL2 191034Z 17008KT 24/20 A2996 RMK A01 T02380202  RH  081%=      5-min Rain = 0
KCL2 191035Z 17009KT 24/20 A2996 RMK A01 T02370202  RH  081%=      5-min Rain = 0
KCL2 191036Z 17008G13KT 24/20 A2997 RMK A01 T02370202  RH  081%=      5-min Rain = 0
KCL2 191037Z 17009KT 24/20 A2997 RMK A01 T02360202  RH  081%=      5-min Rain = 0
KCL2 191038Z 17008KT 24/20 A2997 RMK A01 T02360202  RH  081%=      5-min Rain = 0
KCL2 191039Z 17008KT 24/20 A2997 RMK A01 T02360202  RH  081%=      5-min Rain = 0
KCL2 191040Z 17008KT 24/20 A2997 RMK A01 T02360202  RH  081%=      5-min Rain = 0
KCL2 191041Z 17008KT 24/20 A2997 RMK A01 T02360203  RH  081%=      5-min Rain = 0
KCL2 191042Z 17010KT 24/20 A2997 RMK A01 T02360202  RH  081%=      5-min Rain = 0
KCL2 191043Z 17008KT 24/20 A2997 RMK A01 T02360202  RH  081%=      5-min Rain = 0
KCL2 191044Z 17011KT 24/20 A2997 RMK A01 T02360202  RH  081%=      5-min Rain = 0
KCL2 191045Z 17010KT 24/20 A2997 RMK A01 T02360202  RH  081%=      5-min Rain = 0
KCL2 191046Z 17009KT 24/20 A2997 RMK A01 T02360202  RH  081%=      5-min Rain = 0
KCL2 191047Z 17009KT 24/20 A2997 RMK A01 T02350202  RH  081%=      5-min Rain = 0
KCL2 191048Z 17009KT 24/20 A2997 RMK A01 T02350202  RH  081%=      5-min Rain = 0
KCL2 191049Z 17008KT 24/20 A2996 RMK A01 T02350201  RH  082%=      5-min Rain = 0
KCL2 191050Z 17008KT 23/20 A2997 RMK A01 T02340201  RH  082%=      5-min Rain = 0
KCL2 191051Z 18008KT 23/20 A2997 RMK A01 T02340201  RH  082%=      5-min Rain = 0
KCL2 191052Z 17008KT 23/20 A2997 RMK A01 T02330201  RH  082%=      5-min Rain = 0
KCL2 191053Z 17008KT 23/20 A2997 RMK A01 T02330201  RH  082%=      5-min Rain = 0
KCL2 191054Z 17008KT 23/20 A2997 RMK A01 T02330201  RH  082%=      5-min Rain = 0
KCL2 191055Z 17007KT 23/20 A2997 RMK A01 T02330201  RH  082%=      5-min Rain = 0
KCL2 191056Z 17008KT 23/20 A2997 RMK A01 T02330201  RH  082%=      5-min Rain = 0
KCL2 191057Z 17009KT 23/20 A2997 RMK A01 T02330201  RH  082%=      5-min Rain = 0
KCL2 191058Z 17009KT 23/20 A2997 RMK A01 T02320201  RH  082%=      5-min Rain = 0
KCL2 191059Z 17009KT 23/20 A2997 RMK A01 T02320200  RH  082%=      5-min Rain = 0
KCL2 191100Z 17010KT 23/20 A2997 RMK A01 T02330200  RH  082%=      5-min Rain = 0
KCL2 191101Z 17011KT 23/20 A2997 RMK A01 T02330200  RH  082%=      5-min Rain = 0
KCL2 191102Z 17010KT 23/20 A2997 RMK A01 T02330200  RH  082%=      5-min Rain = 0
KCL2 191103Z 18010KT 23/20 A2997 RMK A01 T02330200  RH  082%=      5-min Rain = 0
KCL2 191104Z 17008KT 23/20 A2997 RMK A01 T02330200  RH  082%=      5-min Rain = 0
KCL2 191105Z 17011KT 23/20 A2997 RMK A01 T02330200  RH  082%=      5-min Rain = 0
KCL2 191106Z 17011KT 23/20 A2997 RMK A01 T02330200  RH  082%=      5-min Rain = 0
KCL2 191107Z 18010KT 23/20 A2997 RMK A01 T02330200  RH  082%=      5-min Rain = 0
KCL2 191108Z 17009KT 23/20 A2997 RMK A01 T02330200  RH  082%=      5-min Rain = 0
KCL2 191109Z 18011G17KT 23/20 A2997 RMK A01 T02320200  RH  082%=      5-min Rain = 0
KCL2 191110Z 18010KT 23/20 A2997 RMK A01 T02330200  RH  082%=      5-min Rain = 0
KCL2 191111Z 17011KT 23/20 A2997 RMK A01 T02320199  RH  082%=      5-min Rain = 0
KCL2 191112Z 17011KT 23/20 A2997 RMK A01 T02330200  RH  082%=      5-min Rain = 0
KCL2 191113Z 18010KT 23/20 A2997 RMK A01 T02330200  RH  082%=      5-min Rain = 0
KCL2 191114Z 17010KT 23/20 A2997 RMK A01 T02320200  RH  082%=      5-min Rain = 0
KCL2 191115Z 18010KT 23/20 A2997 RMK A01 T02320199  RH  082%=      5-min Rain = 0
KCL2 191116Z 17010KT 23/20 A2997 RMK A01 T02320199  RH  082%=      5-min Rain = 0
KCL2 191117Z 18009KT 23/20 A2997 RMK A01 T02320199  RH  082%=      5-min Rain = 0
KCL2 191118Z 17009KT 23/20 A2997 RMK A01 T02310199  RH  082%=      5-min Rain = 0
KCL2 191119Z 17009KT 23/20 A2997 RMK A01 T02310199  RH  082%=      5-min Rain = 0
KCL2 191120Z 18011KT 23/20 A2997 RMK A01 T02310199  RH  082%=      5-min Rain = 0
KCL2 191121Z 18012KT 23/20 A2997 RMK A01 T02300198  RH  082%=      5-min Rain = 0
KCL2 191122Z 18013KT 23/20 A2997 RMK A01 T02310198  RH  082%=      5-min Rain = 0
KCL2 191123Z 17010KT 23/20 A2997 RMK A01 T02320198  RH  081%=      5-min Rain = 0
KCL2 191124Z 18009G14KT 23/20 A2997 RMK A01 T02320198  RH  082%=      5-min Rain = 0
KCL2 191125Z 18009G14KT 23/20 A2997 RMK A01 T02310198  RH  082%=      5-min Rain = 0
KCL2 191126Z 18009KT 23/20 A2997 RMK A01 T02310198  RH  082%=      5-min Rain = 0
KCL2 191127Z 18011KT 23/20 A2997 RMK A01 T02310198  RH  082%=      5-min Rain = 0
KCL2 191128Z 18011KT 23/20 A2997 RMK A01 T02310198  RH  082%=      5-min Rain = 0
KCL2 191129Z 18012KT 23/20 A2997 RMK A01 T02310198  RH  082%=      5-min Rain = 0
KCL2 191130Z 18011KT 23/20 A2997 RMK A01 T02310198  RH  081%=      5-min Rain = 0
KCL2 191131Z 18011KT 23/20 A2997 RMK A01 T02310197  RH  081%=      5-min Rain = 0
KCL2 191132Z 18012KT 23/20 A2997 RMK A01 T02310197  RH  081%=      5-min Rain = 0
KCL2 191133Z 18009KT 23/20 A2997 RMK A01 T02310197  RH  081%=      5-min Rain = 0
KCL2 191134Z 18012KT 23/20 A2998 RMK A01 T02310198  RH  082%=      5-min Rain = 0
KCL2 191135Z 18010KT 23/20 A2998 RMK A01 T02300198  RH  082%=      5-min Rain = 0
KCL2 191136Z 18010KT 23/20 A2998 RMK A01 T02300197  RH  082%=      5-min Rain = 0
KCL2 191137Z 18012KT 23/20 A2998 RMK A01 T02300197  RH  082%=      5-min Rain = 0
KCL2 191138Z 18011KT 23/20 A2998 RMK A01 T02300197  RH  082%=      5-min Rain = 0
KCL2 191139Z 18010KT 23/20 A2998 RMK A01 T02300197  RH  082%=      5-min Rain = 0
KCL2 191140Z 18010KT 23/20 A2998 RMK A01 T02300197  RH  082%=      5-min Rain = 0
KCL2 191141Z 18011KT 23/20 A2998 RMK A01 T02300198  RH  082%=      5-min Rain = 0
KCL2 191142Z 17012KT 23/20 A2998 RMK A01 T02300198  RH  082%=      5-min Rain = 0
KCL2 191143Z 18009KT 23/20 A2998 RMK A01 T02300197  RH  082%=      5-min Rain = 0
KCL2 191144Z 18010KT 23/20 A2998 RMK A01 T02300197  RH  082%=      5-min Rain = 0
KCL2 191145Z 18012KT 23/20 A2998 RMK A01 T02300197  RH  082%=      5-min Rain = 0
KCL2 191146Z 18010KT 23/20 A2998 RMK A01 T02300197  RH  082%=      5-min Rain = 0
KCL2 191147Z 18010KT 23/20 A2998 RMK A01 T02300197  RH  082%=      5-min Rain = 0
KCL2 191148Z 18010KT 23/20 A2998 RMK A01 T02290197  RH  082%=      5-min Rain = 0
KCL2 191149Z 17009KT 23/20 A2998 RMK A01 T02290197  RH  082%=      5-min Rain = 0
KCL2 191150Z 17009KT 23/20 A2998 RMK A01 T02280197  RH  083%=      5-min Rain = 0
KCL2 191151Z 17009KT 23/20 A2998 RMK A01 T02280197  RH  083%=      5-min Rain = 0
KCL2 191152Z 17009KT 23/20 A2998 RMK A01 T02280197  RH  083%=      5-min Rain = 0
KCL2 191153Z 18009KT 23/20 A2998 RMK A01 T02280197  RH  083%=      5-min Rain = 0
KCL2 191154Z 18009KT 23/20 A2998 RMK A01 T02270197  RH  083%=      5-min Rain = 0
KCL2 191155Z 17007KT 23/20 A2998 RMK A01 T02270197  RH  083%=      5-min Rain = 0
KCL2 191156Z 17009KT 23/20 A2998 RMK A01 T02270197  RH  083%=      5-min Rain = 0
KCL2 191157Z 18009KT 23/20 A2998 RMK A01 T02270197  RH  083%=      5-min Rain = 0
KCL2 191158Z 18009KT 23/20 A2998 RMK A01 T02260197  RH  083%=      5-min Rain = 0
KCL2 191159Z 17009KT 23/20 A2998 RMK A01 T02270197  RH  083%=      5-min Rain = 0
KCL2 191200Z 18010KT 23/20 A2998 RMK A01 T02270197  RH  083%=      5-min Rain = 0
KCL2 191201Z 18008KT 23/20 A2998 RMK A01 T02270197  RH  083%=      5-min Rain = 0
KCL2 191202Z 18008KT 23/20 A2998 RMK A01 T02270197  RH  083%=      5-min Rain = 0
KCL2 191203Z 18009KT 23/20 A2998 RMK A01 T02270197  RH  083%=      5-min Rain = 0
KCL2 191204Z 18009KT 23/20 A2998 RMK A01 T02260197  RH  083%=      5-min Rain = 0
KCL2 191205Z 18007KT 23/20 A2998 RMK A01 T02270197  RH  083%=      5-min Rain = 0
KCL2 191206Z 18008KT 23/20 A2998 RMK A01 T02260197  RH  084%=      5-min Rain = 0
KCL2 191207Z 18008KT 23/20 A2998 RMK A01 T02250197  RH  084%=      5-min Rain = 0
KCL2 191208Z 18009KT 23/20 A2998 RMK A01 T02250197  RH  084%=      5-min Rain = 0
KCL2 191209Z 18009KT 23/20 A2998 RMK A01 T02260197  RH  084%=      5-min Rain = 0
KCL2 191210Z 18008KT 23/20 A2998 RMK A01 T02260197  RH  084%=      5-min Rain = 0
KCL2 191211Z 18008KT 23/20 A2998 RMK A01 T02260197  RH  084%=      5-min Rain = 0
KCL2 191212Z 18009KT 23/20 A2999 RMK A01 T02260197  RH  084%=      5-min Rain = 0
KCL2 191213Z 18011KT 23/20 A2998 RMK A01 T02260197  RH  084%=      5-min Rain = 0
KCL2 191214Z 18009KT 23/20 A2999 RMK A01 T02270197  RH  083%=      5-min Rain = 0
KCL2 191215Z 18008KT 23/20 A2999 RMK A01 T02270197  RH  083%=      5-min Rain = 0
KCL2 191216Z 18009KT 23/20 A2998 RMK A01 T02270197  RH  083%=      5-min Rain = 0
KCL2 191217Z 18009KT 23/20 A2998 RMK A01 T02270197  RH  083%=      5-min Rain = 0
KCL2 191218Z 18008KT 23/20 A2998 RMK A01 T02270197  RH  083%=      5-min Rain = 0
KCL2 191219Z 18009KT 23/20 A2999 RMK A01 T02270197  RH  083%=      5-min Rain = 0
KCL2 191220Z 18010KT 23/20 A2999 RMK A01 T02270197  RH  083%=      5-min Rain = 0
KCL2 191221Z 18007KT 23/20 A2999 RMK A01 T02270197  RH  083%=      5-min Rain = 0
KCL2 191222Z 18008KT 23/20 A2999 RMK A01 T02270197  RH  083%=      5-min Rain = 0
KCL2 191223Z 18010KT 23/20 A2999 RMK A01 T02270197  RH  083%=      5-min Rain = 0
KCL2 191224Z 18009KT 23/20 A2999 RMK A01 T02270197  RH  083%=      5-min Rain = 0
KCL2 191225Z 18010KT 23/20 A2999 RMK A01 T02270197  RH  083%=      5-min Rain = 0
KCL2 191226Z 18009KT 23/20 A2999 RMK A01 T02280197  RH  083%=      5-min Rain = 0
KCL2 191227Z 18009KT 23/20 A2999 RMK A01 T02280197  RH  083%=      5-min Rain = 0
KCL2 191228Z 18009KT 23/20 A2999 RMK A01 T02280197  RH  083%=      5-min Rain = 0
KCL2 191229Z 18010KT 23/20 A2999 RMK A01 T02280197  RH  083%=      5-min Rain = 0
KCL2 191230Z 18011KT 23/20 A2999 RMK A01 T02290197  RH  082%=      5-min Rain = 0
KCL2 191231Z 18011KT 23/20 A2999 RMK A01 T02290197  RH  082%=      5-min Rain = 0
KCL2 191232Z 18008KT 23/20 A2999 RMK A01 T02290197  RH  082%=      5-min Rain = 0
KCL2 191233Z 18010KT 23/20 A2999 RMK A01 T02290197  RH  082%=      5-min Rain = 0
KCL2 191234Z 19009KT 23/20 A2999 RMK A01 T02290197  RH  082%=      5-min Rain = 0
KCL2 191235Z 18008KT 23/20 A2999 RMK A01 T02300197  RH  082%=      5-min Rain = 0
KCL2 191236Z 18008KT 23/20 A2999 RMK A01 T02300198  RH  082%=      5-min Rain = 0
KCL2 191237Z 18010KT 23/20 A2999 RMK A01 T02300197  RH  082%=      5-min Rain = 0
KCL2 191238Z 17011KT 23/20 A2999 RMK A01 T02300198  RH  082%=      5-min Rain = 0
KCL2 191239Z 18009KT 23/20 A2999 RMK A01 T02310197  RH  082%=      5-min Rain = 0
KCL2 191240Z 18010KT 23/20 A2999 RMK A01 T02310198  RH  082%=      5-min Rain = 0
KCL2 191241Z 18010KT 23/20 A2999 RMK A01 T02310198  RH  082%=      5-min Rain = 0
KCL2 191242Z 18009KT 23/20 A2999 RMK A01 T02310198  RH  081%=      5-min Rain = 0
KCL2 191243Z 17008KT 23/20 A2999 RMK A01 T02310198  RH  082%=      5-min Rain = 0
KCL2 191244Z 18009KT 23/20 A2999 RMK A01 T02320199  RH  081%=      5-min Rain = 0
KCL2 191245Z 18010KT 23/20 A2999 RMK A01 T02320198  RH  081%=      5-min Rain = 0
KCL2 191246Z 17012KT 23/20 A2999 RMK A01 T02330198  RH  081%=      5-min Rain = 0
KCL2 191247Z 18011KT 23/20 A2999 RMK A01 T02330198  RH  081%=      5-min Rain = 0
KCL2 191248Z 18010KT 23/20 A2999 RMK A01 T02330198  RH  081%=      5-min Rain = 0
KCL2 191249Z 18012KT 23/20 A2999 RMK A01 T02330198  RH  081%=      5-min Rain = 0
KCL2 191250Z 18010G16KT 23/20 A2999 RMK A01 T02330198  RH  081%=      5-min Rain = 0
KCL2 191251Z 18011KT 23/20 A2999 RMK A01 T02340199  RH  081%=      5-min Rain = 0
KCL2 191252Z 18011KT 23/20 A2999 RMK A01 T02340198  RH  080%=      5-min Rain = 0
KCL2 191253Z 18009KT 23/20 A2999 RMK A01 T02340198  RH  080%=      5-min Rain = 0
KCL2 191254Z 18012KT 24/20 A2999 RMK A01 T02350199  RH  080%=      5-min Rain = 0
KCL2 191255Z 17010KT 24/20 A2999 RMK A01 T02350199  RH  080%=      5-min Rain = 0
KCL2 191256Z 18010G15KT 24/20 A2999 RMK A01 T02360199  RH  080%=      5-min Rain = 0
KCL2 191257Z 18013G18KT 24/20 A2999 RMK A01 T02360199  RH  080%=      5-min Rain = 0
KCL2 191258Z 18013KT 24/20 A2999 RMK A01 T02360198  RH  079%=      5-min Rain = 0
KCL2 191259Z 18012KT 24/20 A2999 RMK A01 T02360199  RH  080%=      5-min Rain = 0
KCL2 191300Z 18010KT 24/20 A2999 RMK A01 T02360199  RH  080%=      5-min Rain = 0
KCL2 191301Z 18013KT 24/20 A2999 RMK A01 T02360199  RH  079%=      5-min Rain = 0
KCL2 191302Z 18011KT 24/20 A2999 RMK A01 T02370199  RH  079%=      5-min Rain = 0
KCL2 191303Z 17012KT 24/20 A2999 RMK A01 T02370199  RH  079%=      5-min Rain = 0
KCL2 191304Z 18013KT 24/20 A2999 RMK A01 T02380199  RH  079%=      5-min Rain = 0
KCL2 191305Z 18011KT 24/20 A2999 RMK A01 T02380199  RH  079%=      5-min Rain = 0
KCL2 191306Z 18011KT 24/20 A2999 RMK A01 T02380200  RH  079%=      5-min Rain = 0
KCL2 191307Z 18012KT 24/20 A2999 RMK A01 T02390199  RH  079%=      5-min Rain = 0
KCL2 191308Z 18012KT 24/20 A2999 RMK A01 T02390199  RH  079%=      5-min Rain = 0
KCL2 191309Z 18012KT 24/20 A2999 RMK A01 T02390199  RH  078%=      5-min Rain = 0
KCL2 191310Z 18014G20KT 24/20 A2999 RMK A01 T02390199  RH  078%=      5-min Rain = 0
KCL2 191311Z 18014KT 24/20 A2999 RMK A01 T02400199  RH  078%=      5-min Rain = 0
KCL2 191312Z 17014KT 24/20 A2999 RMK A01 T02400199  RH  078%=      5-min Rain = 0
KCL2 191313Z 18014KT 24/20 A2999 RMK A01 T02400199  RH  078%=      5-min Rain = 0
KCL2 191314Z 18013KT 24/20 A2999 RMK A01 T02400199  RH  078%=      5-min Rain = 0
KCL2 191315Z 18014KT 24/20 A2999 RMK A01 T02410199  RH  077%=      5-min Rain = 0
KCL2 191316Z 19012KT 24/20 A2999 RMK A01 T02410199  RH  077%=      5-min Rain = 0
KCL2 191317Z 18011KT 24/20 A2999 RMK A01 T02410199  RH  077%=      5-min Rain = 0
KCL2 191318Z 18012KT 24/20 A2999 RMK A01 T02420199  RH  077%=      5-min Rain = 0
KCL2 191319Z 18014KT 24/20 A2999 RMK A01 T02420199  RH  077%=      5-min Rain = 0
KCL2 191320Z 18011KT 24/20 A2999 RMK A01 T02420199  RH  077%=      5-min Rain = 0
KCL2 191321Z 19013G19KT 24/20 A2999 RMK A01 T02430199  RH  077%=      5-min Rain = 0
KCL2 191322Z 18012KT 24/20 A2999 RMK A01 T02430200  RH  076%=      5-min Rain = 0
KCL2 191323Z 19013KT 24/20 A2999 RMK A01 T02440199  RH  076%=      5-min Rain = 0
KCL2 191324Z 18012KT 24/20 A2999 RMK A01 T02440198  RH  075%=      5-min Rain = 0
KCL2 191325Z 19010KT 24/20 A2999 RMK A01 T02440199  RH  076%=      5-min Rain = 0
KCL2 191326Z 19010KT 25/20 A2999 RMK A01 T02460200  RH  076%=      5-min Rain = 0
KCL2 191327Z 18013KT 25/20 A2999 RMK A01 T02470199  RH  075%=      5-min Rain = 0
KCL2 191328Z 18013KT 25/20 A2999 RMK A01 T02470198  RH  074%=      5-min Rain = 0
KCL2 191329Z 18014KT 25/20 A2999 RMK A01 T02470198  RH  074%=      5-min Rain = 0
KCL2 191330Z 19012KT 25/20 A2999 RMK A01 T02470199  RH  074%=      5-min Rain = 0
KCL2 191331Z 18014KT 25/20 A2999 RMK A01 T02470197  RH  074%=      5-min Rain = 0
KCL2 191332Z 19012KT 25/20 A2999 RMK A01 T02480198  RH  074%=      5-min Rain = 0
KCL2 191333Z 19013KT 25/20 A2999 RMK A01 T02480198  RH  074%=      5-min Rain = 0
KCL2 191334Z 18012KT 25/20 A2999 RMK A01 T02490197  RH  073%=      5-min Rain = 0
KCL2 191335Z 18011KT 25/20 A2999 RMK A01 T02490197  RH  073%=      5-min Rain = 0
KCL2 191336Z 18011KT 25/20 A2999 RMK A01 T02490198  RH  073%=      5-min Rain = 0
KCL2 191337Z 18012KT 25/20 A2999 RMK A01 T02490199  RH  073%=      5-min Rain = 0
KCL2 191338Z 18014KT 25/20 A2999 RMK A01 T02500198  RH  073%=      5-min Rain = 0
KCL2 191339Z 19013KT 25/20 A2999 RMK A01 T02500198  RH  073%=      5-min Rain = 0
KCL2 191340Z 19011KT 25/20 A2999 RMK A01 T02500199  RH  073%=      5-min Rain = 0
KCL2 191341Z 19010KT 25/20 A2999 RMK A01 T02510199  RH  073%=      5-min Rain = 0
KCL2 191342Z 18013KT 25/20 A2999 RMK A01 T02520199  RH  072%=      5-min Rain = 0
KCL2 191343Z 18013KT 25/20 A2999 RMK A01 T02530198  RH  071%=      5-min Rain = 0
KCL2 191344Z 19014KT 25/20 A2999 RMK A01 T02530197  RH  071%=      5-min Rain = 0
KCL2 191345Z 18011KT 25/20 A2999 RMK A01 T02530197  RH  071%=      5-min Rain = 0
KCL2 191346Z 18011KT 25/20 A2999 RMK A01 T02530197  RH  071%=      5-min Rain = 0
KCL2 191347Z 18011G17KT 25/20 A2999 RMK A01 T02540198  RH  071%=      5-min Rain = 0
KCL2 191348Z 19015KT 25/20 A2999 RMK A01 T02540196  RH  070%=      5-min Rain = 0
KCL2 191349Z 19014KT 25/20 A2999 RMK A01 T02540197  RH  071%=      5-min Rain = 0
KCL2 191350Z 19013G18KT 25/20 A2999 RMK A01 T02540196  RH  070%=      5-min Rain = 0
KCL2 191351Z 19014KT 25/20 A2999 RMK A01 T02540197  RH  071%=      5-min Rain = 0
KCL2 191352Z 19015KT 25/20 A2999 RMK A01 T02540196  RH  070%=      5-min Rain = 0
KCL2 191353Z 19013KT 25/20 A2999 RMK A01 T02540196  RH  070%=      5-min Rain = 0
KCL2 191354Z 19011G16KT 26/20 A2999 RMK A01 T02550197  RH  070%=      5-min Rain = 0
KCL2 191355Z 19016KT 26/20 A2999 RMK A01 T02560196  RH  069%=      5-min Rain = 0
KCL2 191356Z 19012KT 26/20 A2999 RMK A01 T02560196  RH  069%=      5-min Rain = 0
KCL2 191357Z 20016KT 26/19 A2999 RMK A01 T02560194  RH  069%=      5-min Rain = 0
KCL2 191358Z 19015KT 26/20 A2999 RMK A01 T02560195  RH  069%=      5-min Rain = 0
KCL2 191359Z 18012G17KT 26/20 A2999 RMK A01 T02560195  RH  069%=      5-min Rain = 0
KCL2 191400Z 18011G16KT 26/20 A2999 RMK A01 T02570196  RH  069%=      5-min Rain = 0
KCL2 191401Z 20012KT 26/20 A2999 RMK A01 T02590198  RH  069%=      5-min Rain = 0
KCL2 191402Z 20014KT 26/20 A2999 RMK A01 T02600196  RH  068%=      5-min Rain = 0
KCL2 191403Z 19014KT 26/20 A2999 RMK A01 T02600195  RH  067%=      5-min Rain = 0
KCL2 191404Z 19017KT 26/20 A2999 RMK A01 T02590195  RH  068%=      5-min Rain = 0
KCL2 191405Z 19015KT 26/19 A2999 RMK A01 T02590194  RH  067%=      5-min Rain = 0
KCL2 191406Z 19014KT 26/19 A2999 RMK A01 T02590193  RH  067%=      5-min Rain = 0
KCL2 191407Z 19013KT 26/19 A2999 RMK A01 T02590194  RH  067%=      5-min Rain = 0
KCL2 191408Z 19012G17KT 26/20 A2999 RMK A01 T02600195  RH  067%=      5-min Rain = 0
KCL2 191409Z 20012KT 26/20 A2999 RMK A01 T02610196  RH  067%=      5-min Rain = 0
KCL2 191410Z 20014KT 26/20 A2999 RMK A01 T02620195  RH  067%=      5-min Rain = 0
KCL2 191411Z 20014KT 26/20 A2999 RMK A01 T02630195  RH  066%=      5-min Rain = 0
KCL2 191412Z 20011KT 26/20 A2999 RMK A01 T02630196  RH  067%=      5-min Rain = 0
KCL2 191413Z 18013G18KT 26/20 A2999 RMK A01 T02630197  RH  067%=      5-min Rain = 0
KCL2 191414Z 19014KT 26/20 A2999 RMK A01 T02640195  RH  066%=      5-min Rain = 0
KCL2 191415Z 19014KT 26/20 A2999 RMK A01 T02640195  RH  066%=      5-min Rain = 0
KCL2 191416Z 19013G19KT 26/20 A2999 RMK A01 T02640195  RH  066%=      5-min Rain = 0
KCL2 191417Z 19017KT 26/20 A2999 RMK A01 T02640195  RH  066%=      5-min Rain = 0
KCL2 191418Z 19017KT 26/20 A2999 RMK A01 T02640195  RH  066%=      5-min Rain = 0
KCL2 191419Z 19015KT 26/20 A2999 RMK A01 T02640195  RH  066%=      5-min Rain = 0
KCL2 191420Z 20014KT 26/20 A2999 RMK A01 T02630195  RH  066%=      5-min Rain = 0
KCL2 191421Z 20011KT 26/20 A2999 RMK A01 T02640196  RH  066%=      5-min Rain = 0
KCL2 191422Z 20011KT 27/20 A2999 RMK A01 T02650198  RH  067%=      5-min Rain = 0
KCL2 191423Z 19014G19KT 27/20 A2999 RMK A01 T02670198  RH  066%=      5-min Rain = 0
KCL2 191424Z 20015KT 27/20 A2999 RMK A01 T02670196  RH  065%=      5-min Rain = 0
KCL2 191425Z 20014G23KT 27/20 A2999 RMK A01 T02660198  RH  066%=      5-min Rain = 0
KCL2 191426Z 19012G18KT 27/20 A2999 RMK A01 T02660197  RH  066%=      5-min Rain = 0
KCL2 191427Z 19014KT 27/20 A2999 RMK A01 T02660197  RH  066%=      5-min Rain = 0
KCL2 191428Z 20011KT 27/20 A2999 RMK A01 T02660199  RH  066%=      5-min Rain = 0
KCL2 191429Z 20010KT 27/20 A2999 RMK A01 T02680199  RH  066%=      5-min Rain = 0
KCL2 191430Z 20010KT 27/20 A2999 RMK A01 T02690201  RH  066%=      5-min Rain = 0
KCL2 191431Z 19012KT 27/20 A2999 RMK A01 T02700200  RH  066%=      5-min Rain = 0
KCL2 191432Z 19012KT 27/20 A2999 RMK A01 T02710201  RH  065%=      5-min Rain = 0
KCL2 191433Z 19016KT 27/20 A2999 RMK A01 T02710199  RH  065%=      5-min Rain = 0
KCL2 191434Z 19013KT 27/20 A2999 RMK A01 T02700200  RH  065%=      5-min Rain = 0
KCL2 191435Z 20015G20KT 27/20 A2999 RMK A01 T02700200  RH  065%=      5-min Rain = 0
KCL2 191436Z 19013KT 27/20 A2999 RMK A01 T02710200  RH  065%=      5-min Rain = 0
KCL2 191437Z 20013KT 27/20 A2999 RMK A01 T02720202  RH  066%=      5-min Rain = 0
KCL2 191438Z 18014KT 27/20 A2999 RMK A01 T02720201  RH  065%=      5-min Rain = 0
KCL2 191439Z 19014KT 27/20 A2999 RMK A01 T02730201  RH  065%=      5-min Rain = 0
KCL2 191440Z 19014KT 27/20 A2999 RMK A01 T02730201  RH  065%=      5-min Rain = 0
KCL2 191441Z 20016G21KT 27/20 A2999 RMK A01 T02740202  RH  065%=      5-min Rain = 0
KCL2 191442Z 20017KT 27/20 A2999 RMK A01 T02730201  RH  065%=      5-min Rain = 0
KCL2 191443Z 19012KT 27/20 A2999 RMK A01 T02730201  RH  065%=      5-min Rain = 0
KCL2 191444Z 19015G20KT 27/20 A2999 RMK A01 T02730202  RH  065%=      5-min Rain = 0
KCL2 191445Z 20016KT 27/20 A2999 RMK A01 T02740201  RH  065%=      5-min Rain = 0
KCL2 191446Z 18012KT 27/20 A2999 RMK A01 T02740201  RH  064%=      5-min Rain = 0
KCL2 191447Z 19013G18KT 28/20 A2999 RMK A01 T02750203  RH  065%=      5-min Rain = 0
KCL2 191448Z 19018KT 28/20 A2999 RMK A01 T02770201  RH  064%=      5-min Rain = 0
KCL2 191449Z 19017KT 28/20 A2999 RMK A01 T02760201  RH  063%=      5-min Rain = 0
KCL2 191450Z 19016KT 28/20 A2999 RMK A01 T02750201  RH  064%=      5-min Rain = 0
KCL2 191451Z 18017KT 28/20 A2999 RMK A01 T02750200  RH  064%=      5-min Rain = 0
KCL2 191452Z 19014KT 27/20 A2999 RMK A01 T02740201  RH  064%=      5-min Rain = 0
KCL2 191453Z 20013KT 28/20 A2999 RMK A01 T02750203  RH  065%=      5-min Rain = 0
KCL2 191454Z 20013KT 28/20 A2999 RMK A01 T02770203  RH  064%=      5-min Rain = 0
KCL2 191455Z 20015KT 28/20 A2999 RMK A01 T02780204  RH  064%=      5-min Rain = 0
KCL2 191456Z 20017G22KT 28/20 A2999 RMK A01 T02790203  RH  063%=      5-min Rain = 0
KCL2 191457Z 20017G22KT 28/20 A2999 RMK A01 T02780201  RH  063%=      5-min Rain = 0
KCL2 191458Z 19017KT 28/20 A2999 RMK A01 T02770202  RH  064%=      5-min Rain = 0
KCL2 191459Z 19018KT 28/20 A2999 RMK A01 T02770201  RH  063%=      5-min Rain = 0
KCL2 191500Z 19016G21KT 28/20 A2999 RMK A01 T02770201  RH  063%=      5-min Rain = 0
KCL2 191501Z 19017KT 28/20 A2999 RMK A01 T02770201  RH  063%=      5-min Rain = 0
KCL2 191502Z 18015G20KT 28/20 A2999 RMK A01 T02780201  RH  063%=      5-min Rain = 0
KCL2 191503Z 20015G21KT 28/20 A2999 RMK A01 T02790203  RH  063%=      5-min Rain = 0
KCL2 191504Z 20018KT 28/20 A2999 RMK A01 T02800201  RH  062%=      5-min Rain = 0
KCL2 191505Z 19015KT 28/20 A2999 RMK A01 T02800202  RH  062%=      5-min Rain = 0
KCL2 191506Z 19017KT 28/20 A2999 RMK A01 T02800202  RH  063%=      5-min Rain = 0
KCL2 191507Z 20018KT 28/20 A2998 RMK A01 T02800200  RH  062%=      5-min Rain = 0
KCL2 191508Z 20017KT 28/20 A2999 RMK A01 T02810201  RH  062%=      5-min Rain = 0
KCL2 191509Z 20014KT 28/20 A2999 RMK A01 T02810202  RH  062%=      5-min Rain = 0
KCL2 191510Z 20015KT 28/20 A2999 RMK A01 T02820203  RH  062%=      5-min Rain = 0
KCL2 191511Z 20013KT 28/20 A2999 RMK A01 T02820203  RH  062%=      5-min Rain = 0
KCL2 191512Z 20011G16KT 28/21 A2999 RMK A01 T02820205  RH  063%=      5-min Rain = 0
KCL2 191513Z 20014KT 28/21 A2999 RMK A01 T02840205  RH  062%=      5-min Rain = 0
KCL2 191514Z 19016KT 29/20 A2999 RMK A01 T02850204  RH  061%=      5-min Rain = 0
KCL2 191515Z 19014KT 29/21 A2999 RMK A01 T02850205  RH  062%=      5-min Rain = 0
KCL2 191516Z 19014KT 29/20 A2999 RMK A01 T02850203  RH  061%=      5-min Rain = 0
KCL2 191517Z 20015KT 29/20 A2998 RMK A01 T02850202  RH  061%=      5-min Rain = 0
KCL2 191518Z 20015KT 29/20 A2999 RMK A01 T02850203  RH  061%=      5-min Rain = 0
KCL2 191519Z 20015KT 29/20 A2999 RMK A01 T02850202  RH  061%=      5-min Rain = 0
KCL2 191520Z 18013KT 29/21 A2999 RMK A01 T02850205  RH  062%=      5-min Rain = 0
KCL2 191521Z 19014KT 29/21 A2999 RMK A01 T02860206  RH  062%=      5-min Rain = 0
KCL2 191522Z 18018G24KT 29/20 A2999 RMK A01 T02880204  RH  061%=      5-min Rain = 0
KCL2 191523Z 18018G24KT 29/20 A2999 RMK A01 T02860202  RH  061%=      5-min Rain = 0
KCL2 191524Z 19018KT 29/20 A2999 RMK A01 T02850202  RH  061%=      5-min Rain = 0
KCL2 191525Z 19015KT 29/20 A2999 RMK A01 T02850202  RH  061%=      5-min Rain = 0
KCL2 191526Z 19011KT 29/21 A2999 RMK A01 T02860206  RH  062%=      5-min Rain = 0
KCL2 191527Z 18011KT 29/21 A2999 RMK A01 T02890208  RH  061%=      5-min Rain = 0
KCL2 191528Z 18014KT 29/21 A2999 RMK A01 T02920206  RH  060%=      5-min Rain = 0
KCL2 191529Z 18015KT 29/20 A2999 RMK A01 T02910204  RH  059%=      5-min Rain = 0
KCL2 191530Z 18014KT 29/21 A2999 RMK A01 T02910205  RH  060%=      5-min Rain = 0
KCL2 191531Z 19016KT 29/20 A2999 RMK A01 T02910204  RH  060%=      5-min Rain = 0
KCL2 191532Z 20016KT 29/20 A2999 RMK A01 T02920204  RH  059%=      5-min Rain = 0
KCL2 191533Z 20017KT 29/20 A2999 RMK A01 T02910204  RH  059%=      5-min Rain = 0
KCL2 191534Z 19014KT 29/20 A2999 RMK A01 T02900204  RH  060%=      5-min Rain = 0
KCL2 191535Z 19013KT 29/21 A2999 RMK A01 T02900206  RH  061%=      5-min Rain = 0
KCL2 191536Z 18013G19KT 29/21 A2999 RMK A01 T02910207  RH  061%=      5-min Rain = 0
KCL2 191537Z 19014KT 29/21 A2999 RMK A01 T02920206  RH  060%=      5-min Rain = 0
KCL2 191538Z 18014G19KT 29/21 A2999 RMK A01 T02920207  RH  060%=      5-min Rain = 0
KCL2 191539Z 19015KT 29/21 A2998 RMK A01 T02920206  RH  060%=      5-min Rain = 0
KCL2 191540Z 19012KT 29/21 A2999 RMK A01 T02910206  RH  060%=      5-min Rain = 0
KCL2 191541Z 18014KT 29/21 A2999 RMK A01 T02920206  RH  060%=      5-min Rain = 0
KCL2 191542Z 18014KT 29/21 A2998 RMK A01 T02940205  RH  059%=      5-min Rain = 0
KCL2 191543Z 18014KT 29/20 A2998 RMK A01 T02940204  RH  059%=      5-min Rain = 0
KCL2 191544Z 19014KT 29/21 A2998 RMK A01 T02940205  RH  059%=      5-min Rain = 0
KCL2 191545Z 18014G19KT 29/21 A2998 RMK A01 T02940206  RH  059%=      5-min Rain = 0
KCL2 191546Z 19017KT 29/21 A2998 RMK A01 T02940205  RH  059%=      5-min Rain = 0
KCL2 191547Z 19016KT 29/20 A2998 RMK A01 T02940203  RH  058%=      5-min Rain = 0
KCL2 191548Z 20015G21KT 29/20 A2998 RMK A01 T02930204  RH  059%=      5-min Rain = 0
KCL2 191549Z 20013KT 29/21 A2998 RMK A01 T02930206  RH  059%=      5-min Rain = 0
KCL2 191550Z 18016KT 30/20 A2998 RMK A01 T02950204  RH  058%=      5-min Rain = 0
KCL2 191551Z 19016G21KT 30/20 A2998 RMK A01 T02950204  RH  058%=      5-min Rain = 0
KCL2 191552Z 18018KT 30/20 A2998 RMK A01 T02960203  RH  057%=      5-min Rain = 0
KCL2 191553Z 18019KT 30/20 A2998 RMK A01 T02950202  RH  057%=      5-min Rain = 0
KCL2 191554Z 18019KT 30/20 A2998 RMK A01 T02950202  RH  057%=      5-min Rain = 0
KCL2 191555Z 18015G22KT 29/20 A2998 RMK A01 T02940203  RH  058%=      5-min Rain = 0
KCL2 191556Z 19013KT 29/20 A2998 RMK A01 T02940204  RH  058%=      5-min Rain = 0
KCL2 191557Z 18017KT 30/20 A2998 RMK A01 T02950203  RH  058%=      5-min Rain = 0
KCL2 191558Z 19012KT 30/20 A2998 RMK A01 T02950204  RH  058%=      5-min Rain = 0
KCL2 191559Z 19014KT 30/21 A2998 RMK A01 T02980207  RH  058%=      5-min Rain = 0
KCL2 191600Z 18011G16KT 30/21 A2998 RMK A01 T03000208  RH  058%=      5-min Rain = 0
KCL2 191601Z 17013G18KT 30/21 A2998 RMK A01 T03000208  RH  058%=      5-min Rain = 0
KCL2 191602Z 17014KT 30/21 A2998 RMK A01 T03010207  RH  057%=      5-min Rain = 0
KCL2 191603Z 18014KT 30/21 A2998 RMK A01 T03010206  RH  057%=      5-min Rain = 0
KCL2 191604Z 18016KT 30/21 A2998 RMK A01 T03010205  RH  057%=      5-min Rain = 0
KCL2 191605Z 18015KT 30/20 A2998 RMK A01 T02990201  RH  056%=      5-min Rain = 0
KCL2 191606Z 19018KT 30/20 A2998 RMK A01 T02990202  RH  056%=      5-min Rain = 0
KCL2 191607Z 18017KT 30/20 A2998 RMK A01 T02990202  RH  056%=      5-min Rain = 0
KCL2 191608Z 18015KT 30/21 A2998 RMK A01 T02980205  RH  057%=      5-min Rain = 0
KCL2 191609Z 17015G20KT 30/21 A2999 RMK A01 T02990206  RH  057%=      5-min Rain = 0
KCL2 191610Z 17016KT 30/20 A2998 RMK A01 T03010204  RH  056%=      5-min Rain = 0
KCL2 191611Z 18014KT 30/21 A2999 RMK A01 T03000206  RH  057%=      5-min Rain = 0
KCL2 191612Z 18013KT 30/21 A2998 RMK A01 T03010208  RH  057%=      5-min Rain = 0
KCL2 191613Z 18012G17KT 30/21 A2999 RMK A01 T03020208  RH  057%=      5-min Rain = 0
KCL2 191614Z 17014KT 31/21 A2999 RMK A01 T03050208  RH  056%=      5-min Rain = 0
KCL2 191615Z 18013KT 30/21 A2998 RMK A01 T03040205  RH  055%=      5-min Rain = 0
KCL2 191616Z 17009KT 30/21 A2999 RMK A01 T03030211  RH  058%=      5-min Rain = 0
KCL2 191617Z 17011KT 31/21 A2999 RMK A01 T03060209  RH  056%=      5-min Rain = 0
KCL2 191618Z 18016KT 31/21 A2999 RMK A01 T03080208  RH  055%=      5-min Rain = 0
KCL2 191619Z 18015G20KT 31/21 A2998 RMK A01 T03060206  RH  055%=      5-min Rain = 0
KCL2 191620Z 18016KT 31/21 A2999 RMK A01 T03050206  RH  055%=      5-min Rain = 0
KCL2 191621Z 18018G23KT 31/20 A2999 RMK A01 T03050203  RH  055%=      5-min Rain = 0
KCL2 191622Z 18017KT 30/20 A2999 RMK A01 T03030202  RH  055%=      5-min Rain = 0
KCL2 191623Z 18016G21KT 30/20 A2998 RMK A01 T03010201  RH  055%=      5-min Rain = 0
KCL2 191624Z 19016G21KT 30/20 A2998 RMK A01 T03010203  RH  056%=      5-min Rain = 0
KCL2 191625Z 19019KT 30/20 A2998 RMK A01 T03020204  RH  056%=      5-min Rain = 0
KCL2 191626Z 18018KT 30/20 A2998 RMK A01 T03020202  RH  055%=      5-min Rain = 0
KCL2 191627Z 18014KT 30/20 A2998 RMK A01 T03010202  RH  055%=      5-min Rain = 0
KCL2 191628Z 18013KT 30/20 A2998 RMK A01 T03020204  RH  056%=      5-min Rain = 0
KCL2 191629Z 18015KT 30/20 A2998 RMK A01 T03040204  RH  055%=      5-min Rain = 0
KCL2 191630Z 18016KT 31/20 A2998 RMK A01 T03050202  RH  054%=      5-min Rain = 0
KCL2 191631Z 18017G23KT 31/20 A2998 RMK A01 T03060200  RH  053%=      5-min Rain = 0
KCL2 191632Z 18014KT 30/20 A2998 RMK A01 T03030201  RH  054%=      5-min Rain = 0
KCL2 191633Z 17016G22KT 30/20 A2998 RMK A01 T03040202  RH  055%=      5-min Rain = 0
KCL2 191634Z 17015KT 31/20 A2999 RMK A01 T03050201  RH  054%=      5-min Rain = 0
KCL2 191635Z 17016KT 31/20 A2998 RMK A01 T03050202  RH  054%=      5-min Rain = 0
KCL2 191636Z 17015G20KT 31/20 A2998 RMK A01 T03060200  RH  053%=      5-min Rain = 0
KCL2 191637Z 17014G19KT 31/20 A2999 RMK A01 T03050202  RH  054%=      5-min Rain = 0
KCL2 191638Z 18017KT 31/20 A2998 RMK A01 T03060201  RH  053%=      5-min Rain = 0
KCL2 191639Z 18017KT 31/20 A2998 RMK A01 T03060201  RH  054%=      5-min Rain = 0
KCL2 191640Z 18016KT 31/20 A2999 RMK A01 T03050203  RH  054%=      5-min Rain = 0
KCL2 191641Z 20017KT 31/20 A2999 RMK A01 T03070200  RH  053%=      5-min Rain = 0
KCL2 191642Z 19016KT 31/20 A2998 RMK A01 T03080200  RH  052%=      5-min Rain = 0
KCL2 191643Z 20016KT 31/20 A2998 RMK A01 T03090197  RH  051%=      5-min Rain = 0
KCL2 191644Z 19016G22KT 31/20 A2998 RMK A01 T03090199  RH  052%=      5-min Rain = 0
KCL2 191645Z 19018KT 31/20 A2998 RMK A01 T03100197  RH  051%=      5-min Rain = 0
KCL2 191646Z 19010KT 31/20 A2999 RMK A01 T03090197  RH  051%=      5-min Rain = 0
KCL2 191647Z 19012KT 31/20 A2999 RMK A01 T03100202  RH  052%=      5-min Rain = 0
KCL2 191648Z 19016KT 31/20 A2998 RMK A01 T03130202  RH  052%=      5-min Rain = 0
KCL2 191649Z 20018KT 31/20 A2998 RMK A01 T03120201  RH  052%=      5-min Rain = 0
KCL2 191650Z 20017KT 31/20 A2998 RMK A01 T03110200  RH  052%=      5-min Rain = 0
KCL2 191651Z 18014KT 31/20 A2999 RMK A01 T03110200  RH  052%=      5-min Rain = 0
KCL2 191652Z 18016G21KT 31/20 A2999 RMK A01 T03120200  RH  051%=      5-min Rain = 0
KCL2 191653Z 19019KT 31/20 A2998 RMK A01 T03130197  RH  050%=      5-min Rain = 0
KCL2 191654Z 18017KT 31/20 A2998 RMK A01 T03130196  RH  050%=      5-min Rain = 0
KCL2 191655Z 19018KT 31/20 A2998 RMK A01 T03110197  RH  051%=      5-min Rain = 0
KCL2 191656Z 19017KT 31/20 A2998 RMK A01 T03120197  RH  050%=      5-min Rain = 0
KCL2 191657Z 19013KT 31/20 A2998 RMK A01 T03110199  RH  051%=      5-min Rain = 0
KCL2 191658Z 19013KT 31/20 A2998 RMK A01 T03120201  RH  052%=      5-min Rain = 0
KCL2 191659Z 18014KT 31/20 A2998 RMK A01 T03130201  RH  052%=      5-min Rain = 0
KCL2 191700Z 19012KT 31/20 A2998 RMK A01 T03140203  RH  052%=      5-min Rain = 0
KCL2 191701Z 19015KT 32/20 A2998 RMK A01 T03160201  RH  051%=      5-min Rain = 0
KCL2 191702Z 18017KT 32/20 A2998 RMK A01 T03160201  RH  051%=      5-min Rain = 0
KCL2 191703Z 18016KT 32/20 A2998 RMK A01 T03150201  RH  051%=      5-min Rain = 0
KCL2 191704Z 19013KT 32/20 A2998 RMK A01 T03160203  RH  051%=      5-min Rain = 0
KCL2 191705Z 18012KT 32/20 A2998 RMK A01 T03170203  RH  051%=      5-min Rain = 0
KCL2 191706Z 18013G18KT 32/21 A2998 RMK A01 T03190206  RH  051%=      5-min Rain = 0
KCL2 191707Z 19016KT 32/20 A2998 RMK A01 T03210201  RH  049%=      5-min Rain = 0
KCL2 191708Z 19018KT 32/20 A2998 RMK A01 T03180200  RH  050%=      5-min Rain = 0
KCL2 191709Z 19016KT 32/20 A2998 RMK A01 T03160200  RH  050%=      5-min Rain = 0
KCL2 191710Z 18019KT 32/20 A2998 RMK A01 T03150200  RH  050%=      5-min Rain = 0
KCL2 191711Z 19018KT 32/20 A2998 RMK A01 T03150198  RH  050%=      5-min Rain = 0
KCL2 191712Z 19017KT 32/20 A2998 RMK A01 T03150198  RH  050%=      5-min Rain = 0
KCL2 191713Z 19011KT 32/20 A2998 RMK A01 T03160203  RH  051%=      5-min Rain = 0
KCL2 191714Z 19015KT 32/20 A2998 RMK A01 T03180202  RH  050%=      5-min Rain = 0
KCL2 191715Z 19015KT 32/20 A2998 RMK A01 T03170201  RH  050%=      5-min Rain = 0
KCL2 191716Z 19016G21KT 32/20 A2998 RMK A01 T03170203  RH  051%=      5-min Rain = 0
KCL2 191717Z 19016KT 32/20 A2998 RMK A01 T03180199  RH  049%=      5-min Rain = 0
KCL2 191718Z 20017KT 32/20 A2998 RMK A01 T03190199  RH  049%=      5-min Rain = 0
KCL2 191719Z 20016G21KT 32/20 A2998 RMK A01 T03180196  RH  048%=      5-min Rain = 0
KCL2 191720Z 20013KT 32/20 A2998 RMK A01 T03190203  RH  050%=      5-min Rain = 0
KCL2 191721Z 19011KT 32/21 A2998 RMK A01 T03220206  RH  050%=      5-min Rain = 0
KCL2 191722Z 19011G18KT 33/21 A2998 RMK A01 T03250209  RH  050%=      5-min Rain = 0
KCL2 191723Z 19014G20KT 33/21 A2998 RMK A01 T03270206  RH  049%=      5-min Rain = 0
KCL2 191724Z 18015KT 33/20 A2998 RMK A01 T03260202  RH  048%=      5-min Rain = 0
KCL2 191725Z 19014G19KT 32/20 A2998 RMK A01 T03230203  RH  049%=      5-min Rain = 0
KCL2 191726Z 19017KT 32/20 A2998 RMK A01 T03210202  RH  049%=      5-min Rain = 0
KCL2 191727Z 20017KT 32/20 A2998 RMK A01 T03210201  RH  049%=      5-min Rain = 0
KCL2 191728Z 18015KT 32/20 A2998 RMK A01 T03200202  RH  050%=      5-min Rain = 0
KCL2 191729Z 17016KT 32/20 A2998 RMK A01 T03200201  RH  050%=      5-min Rain = 0
KCL2 191730Z 19015KT 32/20 A2998 RMK A01 T03200203  RH  050%=      5-min Rain = 0
KCL2 191731Z 19013KT 32/21 A2998 RMK A01 T03210205  RH  050%=      5-min Rain = 0
KCL2 191732Z 19012KT 32/21 A2998 RMK A01 T03230206  RH  050%=      5-min Rain = 0
KCL2 191733Z 19012KT 32/20 A2998 RMK A01 T03240204  RH  049%=      5-min Rain = 0
KCL2 191734Z 18015KT 32/20 A2998 RMK A01 T03240204  RH  049%=      5-min Rain = 0
KCL2 191735Z 17012KT 32/20 A2998 RMK A01 T03230204  RH  049%=      5-min Rain = 0
KCL2 191736Z 17012KT 33/20 A2998 RMK A01 T03250202  RH  048%=      5-min Rain = 0
KCL2 191737Z 18015G20KT 33/21 A2998 RMK A01 T03250205  RH  049%=      5-min Rain = 0
KCL2 191738Z 18015KT 32/20 A2998 RMK A01 T03240203  RH  049%=      5-min Rain = 0
KCL2 191739Z 18013KT 32/20 A2998 RMK A01 T03220203  RH  049%=      5-min Rain = 0
KCL2 191740Z 17011KT 32/21 A2998 RMK A01 T03220206  RH  050%=      5-min Rain = 0
KCL2 191741Z 18012KT 32/21 A2998 RMK A01 T03240205  RH  049%=      5-min Rain = 0
KCL2 191742Z 19012KT 33/21 A2997 RMK A01 T03250206  RH  049%=      5-min Rain = 0
KCL2 191743Z 17012G17KT 33/21 A2998 RMK A01 T03260206  RH  049%=      5-min Rain = 0
KCL2 191744Z 18017G22KT 33/21 A2998 RMK A01 T03280205  RH  048%=      5-min Rain = 0
KCL2 191745Z 19016KT 33/20 A2998 RMK A01 T03270201  RH  047%=      5-min Rain = 0
KCL2 191746Z 18015KT 33/20 A2998 RMK A01 T03250202  RH  048%=      5-min Rain = 0
KCL2 191747Z 19015KT 33/20 A2997 RMK A01 T03250204  RH  049%=      5-min Rain = 0
KCL2 191748Z 19017KT 32/20 A2997 RMK A01 T03240200  RH  048%=      5-min Rain = 0
KCL2 191749Z 19013KT 33/20 A2998 RMK A01 T03260202  RH  048%=      5-min Rain = 0
KCL2 191750Z 19015KT 33/20 A2998 RMK A01 T03280202  RH  048%=      5-min Rain = 0
KCL2 191751Z 19014KT 33/20 A2997 RMK A01 T03280200  RH  047%=      5-min Rain = 0
KCL2 191752Z 18017KT 33/20 A2997 RMK A01 T03260200  RH  047%=      5-min Rain = 0
KCL2 191753Z 17013G19KT 33/20 A2997 RMK A01 T03250202  RH  048%=      5-min Rain = 0
KCL2 191754Z 18017KT 33/20 A2997 RMK A01 T03280201  RH  047%=      5-min Rain = 0
KCL2 191755Z 19016G22KT 33/20 A2997 RMK A01 T03270199  RH  047%=      5-min Rain = 0
KCL2 191756Z 18013KT 33/20 A2997 RMK A01 T03250198  RH  047%=      5-min Rain = 0
KCL2 191757Z 18011KT 33/20 A2997 RMK A01 T03250202  RH  048%=      5-min Rain = 0
KCL2 191758Z 18016KT 33/20 A2997 RMK A01 T03270202  RH  048%=      5-min Rain = 0
KCL2 191759Z 17012G17KT 33/20 A2997 RMK A01 T03280203  RH  048%=      5-min Rain = 0
KCL2 191800Z 18014G21KT 33/21 A2997 RMK A01 T03310206  RH  048%=      5-min Rain = 0
KCL2 191801Z 18015G21KT 33/20 A2997 RMK A01 T03330204  RH  047%=      5-min Rain = 0
KCL2 191802Z 18017KT 33/20 A2997 RMK A01 T03320201  RH  046%=      5-min Rain = 0
KCL2 191803Z 18015G20KT 33/20 A2997 RMK A01 T03290202  RH  047%=      5-min Rain = 0
KCL2 191804Z 18015KT 33/20 A2997 RMK A01 T03280203  RH  048%=      5-min Rain = 0
KCL2 191805Z 17020KT 33/20 A2997 RMK A01 T03280201  RH  047%=      5-min Rain = 0
KCL2 191806Z 18016KT 33/20 A2997 RMK A01 T03260200  RH  047%=      5-min Rain = 0
KCL2 191807Z 18013KT 33/20 A2997 RMK A01 T03260198  RH  047%=      5-min Rain = 0
KCL2 191808Z 18013KT 33/20 A2997 RMK A01 T03280201  RH  047%=      5-min Rain = 0
KCL2 191809Z 18016G21KT 33/20 A2997 RMK A01 T03280199  RH  047%=      5-min Rain = 0
KCL2 191810Z 19017KT 33/20 A2997 RMK A01 T03280202  RH  048%=      5-min Rain = 0
KCL2 191811Z 19013KT 33/20 A2997 RMK A01 T03270202  RH  048%=      5-min Rain = 0
KCL2 191812Z 17015G20KT 33/20 A2997 RMK A01 T03280204  RH  048%=      5-min Rain = 0
KCL2 191813Z 19014G20KT 33/21 A2997 RMK A01 T03340210  RH  048%=      5-min Rain = 0
KCL2 191814Z 20016KT 34/20 A2997 RMK A01 T03370204  RH  046%=      5-min Rain = 0
KCL2 191815Z 20013KT 34/21 A2997 RMK A01 T03350205  RH  047%=      5-min Rain = 0
KCL2 191816Z 19010G15KT 33/20 A2997 RMK A01 T03320203  RH  047%=      5-min Rain = 0
KCL2 191817Z 17012G18KT 33/20 A2997 RMK A01 T03310203  RH  047%=      5-min Rain = 0
KCL2 191818Z 17014KT 33/20 A2997 RMK A01 T03320200  RH  046%=      5-min Rain = 0
KCL2 191819Z 17016KT 34/20 A2997 RMK A01 T03350200  RH  045%=      5-min Rain = 0
KCL2 191820Z 18018KT 34/20 A2997 RMK A01 T03360198  RH  044%=      5-min Rain = 0
KCL2 191821Z 18014KT 33/20 A2997 RMK A01 T03330198  RH  045%=      5-min Rain = 0
KCL2 191822Z 19016KT 33/20 A2997 RMK A01 T03330200  RH  046%=      5-min Rain = 0
KCL2 191823Z 20013KT 33/20 A2997 RMK A01 T03320203  RH  047%=      5-min Rain = 0
KCL2 191824Z 19012KT 33/21 A2997 RMK A01 T03330205  RH  047%=      5-min Rain = 0
KCL2 191825Z 18013KT 34/21 A2997 RMK A01 T03360205  RH  046%=      5-min Rain = 0
KCL2 191826Z 17016G21KT 34/20 A2997 RMK A01 T03370202  RH  045%=      5-min Rain = 0
KCL2 191827Z 18014KT 34/20 A2997 RMK A01 T03350200  RH  045%=      5-min Rain = 0
KCL2 191828Z 19020G25KT 33/20 A2997 RMK A01 T03340198  RH  045%=      5-min Rain = 0
KCL2 191829Z 18017G22KT 33/20 A2997 RMK A01 T03330195  RH  044%=      5-min Rain = 0
KCL2 191830Z 19016KT 33/20 A2997 RMK A01 T03320197  RH  045%=      5-min Rain = 0
KCL2 191831Z 18014KT 33/20 A2997 RMK A01 T03310198  RH  046%=      5-min Rain = 0
KCL2 191832Z 18012KT 33/20 A2997 RMK A01 T03310199  RH  046%=      5-min Rain = 0
KCL2 191833Z 19011KT 33/20 A2997 RMK A01 T03320201  RH  046%=      5-min Rain = 0
KCL2 191834Z 18008KT 33/21 A2997 RMK A01 T03340208  RH  048%=      5-min Rain = 0
KCL2 191835Z 16012G20KT 34/21 A2997 RMK A01 T03400207  RH  046%=      5-min Rain = 0
KCL2 191836Z 18017G22KT 34/20 A2997 RMK A01 T03420201  RH  044%=      5-min Rain = 0
KCL2 191837Z 19014KT 34/20 A2997 RMK A01 T03410201  RH  044%=      5-min Rain = 0
KCL2 191838Z 19012KT 34/21 A2997 RMK A01 T03380205  RH  046%=      5-min Rain = 0
KCL2 191839Z 19014KT 34/21 A2997 RMK A01 T03400205  RH  045%=      5-min Rain = 0
KCL2 191840Z 18012KT 34/20 A2997 RMK A01 T03400203  RH  045%=      5-min Rain = 0
KCL2 191841Z 17010KT 34/20 A2997 RMK A01 T03390204  RH  045%=      5-min Rain = 0
KCL2 191842Z 18012G18KT 34/21 A2997 RMK A01 T03400205  RH  045%=      5-min Rain = 0
KCL2 191843Z 18012KT 34/20 A2996 RMK A01 T03420198  RH  043%=      5-min Rain = 0
KCL2 191844Z 19015KT 34/20 A2997 RMK A01 T03410198  RH  043%=      5-min Rain = 0
KCL2 191845Z 19016KT 34/20 A2996 RMK A01 T03400200  RH  044%=      5-min Rain = 0
KCL2 191846Z 18013G21KT 34/20 A2996 RMK A01 T03400203  RH  045%=      5-min Rain = 0
KCL2 191847Z 17016KT 34/20 A2996 RMK A01 T03410199  RH  043%=      5-min Rain = 0
KCL2 191848Z 18018G23KT 34/20 A2996 RMK A01 T03400197  RH  043%=      5-min Rain = 0
KCL2 191849Z 18016KT 34/20 A2996 RMK A01 T03380196  RH  043%=      5-min Rain = 0
KCL2 191850Z 18015KT 34/20 A2996 RMK A01 T03370196  RH  044%=      5-min Rain = 0
KCL2 191851Z 19014KT 34/20 A2996 RMK A01 T03380197  RH  044%=      5-min Rain = 0
KCL2 191852Z 18014G19KT 34/20 A2996 RMK A01 T03390199  RH  044%=      5-min Rain = 0
KCL2 191853Z 17012KT 34/20 A2996 RMK A01 T03400198  RH  043%=      5-min Rain = 0
KCL2 191854Z 17015KT 34/20 A2996 RMK A01 T03410195  RH  042%=      5-min Rain = 0
KCL2 191855Z 17017KT 34/19 A2996 RMK A01 T03390193  RH  042%=      5-min Rain = 0
KCL2 191856Z 17016KT 34/19 A2996 RMK A01 T03380193  RH  042%=      5-min Rain = 0
KCL2 191857Z 18014KT 34/20 A2996 RMK A01 T03380195  RH  043%=      5-min Rain = 0
KCL2 191858Z 19015KT 34/20 A2996 RMK A01 T03390198  RH  044%=      5-min Rain = 0
KCL2 191859Z 17015KT 34/20 A2996 RMK A01 T03420198  RH  043%=      5-min Rain = 0
KCL2 191900Z 17017KT 34/19 A2996 RMK A01 T03420193  RH  042%=      5-min Rain = 0
KCL2 191901Z 16015KT 34/19 A2996 RMK A01 T03410193  RH  042%=      5-min Rain = 0
KCL2 191902Z 17014KT 34/19 A2996 RMK A01 T03410191  RH  041%=      5-min Rain = 0
KCL2 191903Z 16013G18KT 34/20 A2996 RMK A01 T03410196  RH  043%=      5-min Rain = 0
KCL2 191904Z 17011KT 34/20 A2996 RMK A01 T03440199  RH  043%=      5-min Rain = 0
KCL2 191905Z 17013KT 35/20 A2996 RMK A01 T03470200  RH  042%=      5-min Rain = 0
KCL2 191906Z 18014KT 35/20 A2996 RMK A01 T03480198  RH  041%=      5-min Rain = 0
KCL2 191907Z 17016KT 35/20 A2996 RMK A01 T03460196  RH  041%=      5-min Rain = 0
KCL2 191908Z 17012KT 34/20 A2996 RMK A01 T03430197  RH  042%=      5-min Rain = 0
KCL2 191909Z 19013G18KT 35/20 A2996 RMK A01 T03450198  RH  042%=      5-min Rain = 0
KCL2 191910Z 18014G19KT 35/20 A2996 RMK A01 T03460200  RH  042%=      5-min Rain = 0
KCL2 191911Z 18013G18KT 35/20 A2996 RMK A01 T03460196  RH  041%=      5-min Rain = 0
KCL2 191912Z 18014KT 34/20 A2996 RMK A01 T03430198  RH  043%=      5-min Rain = 0
KCL2 191913Z 17014G20KT 34/20 A2996 RMK A01 T03430198  RH  043%=      5-min Rain = 0
KCL2 191914Z 18014KT 34/20 A2996 RMK A01 T03430197  RH  042%=      5-min Rain = 0
KCL2 191915Z 19014KT 34/20 A2996 RMK A01 T03430197  RH  042%=      5-min Rain = 0
KCL2 191916Z 19016G23KT 34/20 A2996 RMK A01 T03430197  RH  042%=      5-min Rain = 0
KCL2 191917Z 19015KT 34/20 A2996 RMK A01 T03440195  RH  042%=      5-min Rain = 0
KCL2 191918Z 20016KT 34/19 A2996 RMK A01 T03430194  RH  041%=      5-min Rain = 0
KCL2 191919Z 19014G19KT 34/19 A2996 RMK A01 T03430194  RH  041%=      5-min Rain = 0
KCL2 191920Z 19011KT 34/20 A2996 RMK A01 T03430196  RH  042%=      5-min Rain = 0
KCL2 191921Z 17013G19KT 34/20 A2996 RMK A01 T03430196  RH  042%=      5-min Rain = 0
KCL2 191922Z 17017KT 34/19 A2996 RMK A01 T03440192  RH  041%=      5-min Rain = 0
KCL2 191923Z 18018KT 34/19 A2995 RMK A01 T03440194  RH  041%=      5-min Rain = 0
KCL2 191924Z 18013G20KT 35/20 A2996 RMK A01 T03460197  RH  042%=      5-min Rain = 0
KCL2 191925Z 18016G22KT 35/19 A2996 RMK A01 T03470193  RH  041%=      5-min Rain = 0
KCL2 191926Z 19015KT 35/19 A2996 RMK A01 T03450194  RH  041%=      5-min Rain = 0
KCL2 191927Z 17012KT 35/19 A2996 RMK A01 T03450193  RH  041%=      5-min Rain = 0
KCL2 191928Z 19013G20KT 35/20 A2996 RMK A01 T03470200  RH  042%=      5-min Rain = 0
KCL2 191929Z 19014KT 35/20 A2996 RMK A01 T03500198  RH  041%=      5-min Rain = 0
KCL2 191930Z 19015KT 35/19 A2996 RMK A01 T03500194  RH  040%=      5-min Rain = 0
KCL2 191931Z 20016KT 35/20 A2996 RMK A01 T03470196  RH  041%=      5-min Rain = 0
KCL2 191932Z 19011KT 35/20 A2996 RMK A01 T03460199  RH  042%=      5-min Rain = 0
KCL2 191933Z 18016G22KT 35/20 A2996 RMK A01 T03470197  RH  041%=      5-min Rain = 0
KCL2 191934Z 17018KT 35/19 A2996 RMK A01 T03480194  RH  040%=      5-min Rain = 0
KCL2 191935Z 18014G20KT 35/19 A2996 RMK A01 T03480194  RH  040%=      5-min Rain = 0
KCL2 191936Z 19016G23KT 35/20 A2996 RMK A01 T03480197  RH  041%=      5-min Rain = 0
KCL2 191937Z 19014KT 35/19 A2996 RMK A01 T03480192  RH  040%=      5-min Rain = 0
KCL2 191938Z 18015KT 35/19 A2996 RMK A01 T03460193  RH  041%=      5-min Rain = 0
KCL2 191939Z 17016KT 35/19 A2996 RMK A01 T03450192  RH  040%=      5-min Rain = 0
KCL2 191940Z 18012G18KT 34/20 A2996 RMK A01 T03440195  RH  041%=      5-min Rain = 0
KCL2 191941Z 17014KT 35/19 A2996 RMK A01 T03450191  RH  040%=      5-min Rain = 0
KCL2 191942Z 18015G20KT 35/20 A2995 RMK A01 T03450195  RH  041%=      5-min Rain = 0
KCL2 191943Z 18018KT 35/19 A2995 RMK A01 T03460192  RH  040%=      5-min Rain = 0
KCL2 191944Z 17016KT 35/19 A2995 RMK A01 T03460193  RH  041%=      5-min Rain = 0
KCL2 191945Z 18016KT 35/19 A2995 RMK A01 T03460192  RH  040%=      5-min Rain = 0
KCL2 191946Z 18017KT 35/19 A2995 RMK A01 T03470192  RH  040%=      5-min Rain = 0
KCL2 191947Z 18017KT 35/19 A2995 RMK A01 T03470192  RH  040%=      5-min Rain = 0
KCL2 191948Z 19015KT 35/19 A2995 RMK A01 T03470191  RH  040%=      5-min Rain = 0
KCL2 191949Z 19014G19KT 35/19 A2995 RMK A01 T03470191  RH  040%=      5-min Rain = 0
KCL2 191950Z 17014KT 35/19 A2995 RMK A01 T03470193  RH  040%=      5-min Rain = 0
KCL2 191951Z 16013KT 35/19 A2995 RMK A01 T03470190  RH  040%=      5-min Rain = 0
KCL2 191952Z 18013G22KT 35/19 A2995 RMK A01 T03450194  RH  041%=      5-min Rain = 0
KCL2 191953Z 18017KT 35/19 A2995 RMK A01 T03470190  RH  040%=      5-min Rain = 0
KCL2 191954Z 18017KT 35/19 A2995 RMK A01 T03470189  RH  039%=      5-min Rain = 0
KCL2 191955Z 18016KT 35/19 A2995 RMK A01 T03480190  RH  040%=      5-min Rain = 0
KCL2 191956Z 18015KT 35/19 A2995 RMK A01 T03480186  RH  039%=      5-min Rain = 0
KCL2 191957Z 18013KT 35/19 A2995 RMK A01 T03470193  RH  040%=      5-min Rain = 0
KCL2 191958Z 18013KT 35/19 A2995 RMK A01 T03490194  RH  040%=      5-min Rain = 0
KCL2 191959Z 18015G20KT 35/19 A2995 RMK A01 T03500193  RH  040%=      5-min Rain = 0
KCL2 192000Z 17014KT 35/20 A2995 RMK A01 T03490195  RH  040%=      5-min Rain = 0
KCL2 192001Z 18017G22KT 35/19 A2995 RMK A01 T03490193  RH  040%=      5-min Rain = 0
KCL2 192002Z 18015KT 35/19 A2995 RMK A01 T03480189  RH  039%=      5-min Rain = 0
KCL2 192003Z 17013KT 35/19 A2995 RMK A01 T03480191  RH  040%=      5-min Rain = 0
KCL2 192004Z 18009KT 35/19 A2995 RMK A01 T03510194  RH  040%=      5-min Rain = 0
KCL2 192005Z 20013KT 35/20 A2994 RMK A01 T03540196  RH  039%=      5-min Rain = 0
KCL2 192006Z 20016KT 35/19 A2994 RMK A01 T03530192  RH  039%=      5-min Rain = 0
KCL2 192007Z 20016KT 35/19 A2994 RMK A01 T03520193  RH  039%=      5-min Rain = 0
KCL2 192008Z 19014KT 35/20 A2994 RMK A01 T03510196  RH  040%=      5-min Rain = 0
KCL2 192009Z 18015KT 35/20 A2994 RMK A01 T03520197  RH  040%=      5-min Rain = 0
KCL2 192010Z 18013KT 35/20 A2995 RMK A01 T03530200  RH  041%=      5-min Rain = 0
KCL2 192011Z 18016KT 35/20 A2995 RMK A01 T03520196  RH  040%=      5-min Rain = 0
KCL2 192012Z 18015G20KT 35/20 A2994 RMK A01 T03480195  RH  041%=      5-min Rain = 0
KCL2 192013Z 18016KT 35/20 A2994 RMK A01 T03470197  RH  041%=      5-min Rain = 0
KCL2 192014Z 18015KT 35/20 A2995 RMK A01 T03460197  RH  042%=      5-min Rain = 0
KCL2 192015Z 19014KT 35/20 A2994 RMK A01 T03460197  RH  042%=      5-min Rain = 0
KCL2 192016Z 18014KT 35/20 A2994 RMK A01 T03470199  RH  042%=      5-min Rain = 0
KCL2 192017Z 19013KT 35/20 A2994 RMK A01 T03490197  RH  041%=      5-min Rain = 0
KCL2 192018Z 18017KT 35/20 A2994 RMK A01 T03490197  RH  041%=      5-min Rain = 0
KCL2 192019Z 17013G20KT 35/20 A2994 RMK A01 T03490199  RH  041%=      5-min Rain = 0
KCL2 192020Z 16016KT 35/20 A2994 RMK A01 T03510197  RH  040%=      5-min Rain = 0
KCL2 192021Z 16016KT 35/20 A2994 RMK A01 T03520195  RH  040%=      5-min Rain = 0
KCL2 192022Z 16014KT 35/20 A2994 RMK A01 T03510197  RH  041%=      5-min Rain = 0
KCL2 192023Z 17013KT 35/20 A2994 RMK A01 T03500198  RH  041%=      5-min Rain = 0
KCL2 192024Z 18014KT 35/20 A2995 RMK A01 T03510199  RH  041%=      5-min Rain = 0
KCL2 192025Z 17010KT 35/20 A2994 RMK A01 T03510197  RH  041%=      5-min Rain = 0
KCL2 192026Z 19010KT 35/20 A2994 RMK A01 T03490199  RH  041%=      5-min Rain = 0
KCL2 192027Z 19010G16KT 35/20 A2994 RMK A01 T03490201  RH  042%=      5-min Rain = 0
KCL2 192028Z 19015KT 35/20 A2994 RMK A01 T03500199  RH  041%=      5-min Rain = 0
KCL2 192029Z 17018KT 35/19 A2994 RMK A01 T03510194  RH  040%=      5-min Rain = 0
KCL2 192030Z 18020KT 35/19 A2994 RMK A01 T03510189  RH  039%=      5-min Rain = 0
KCL2 192031Z 18014KT 35/19 A2994 RMK A01 T03500190  RH  039%=      5-min Rain = 0
KCL2 192032Z 18012KT 35/19 A2994 RMK A01 T03500190  RH  039%=      5-min Rain = 0
KCL2 192033Z 19014G19KT 35/19 A2994 RMK A01 T03500190  RH  039%=      5-min Rain = 0
KCL2 192034Z 17013KT 35/20 A2994 RMK A01 T03510195  RH  040%=      5-min Rain = 0
KCL2 192035Z 18012KT 35/20 A2994 RMK A01 T03520195  RH  040%=      5-min Rain = 0
KCL2 192036Z 16012KT 35/20 A2994 RMK A01 T03520196  RH  040%=      5-min Rain = 0
KCL2 192037Z 16010KT 35/19 A2994 RMK A01 T03530193  RH  039%=      5-min Rain = 0
KCL2 192038Z 16012KT 35/20 A2994 RMK A01 T03540198  RH  040%=      5-min Rain = 0
KCL2 192039Z 16013KT 35/19 A2994 RMK A01 T03540193  RH  039%=      5-min Rain = 0
KCL2 192040Z 18013KT 35/20 A2994 RMK A01 T03530197  RH  040%=      5-min Rain = 0
KCL2 192041Z 17011KT 35/20 A2994 RMK A01 T03530195  RH  040%=      5-min Rain = 0
KCL2 192042Z 18014G19KT 35/20 A2994 RMK A01 T03530201  RH  041%=      5-min Rain = 0
KCL2 192043Z 18016KT 36/20 A2994 RMK A01 T03550197  RH  040%=      5-min Rain = 0
KCL2 192044Z 18012KT 36/20 A2994 RMK A01 T03550196  RH  039%=      5-min Rain = 0
KCL2 192045Z 18011KT 36/20 A2994 RMK A01 T03550199  RH  040%=      5-min Rain = 0
KCL2 192046Z 18012KT 36/20 A2994 RMK A01 T03560196  RH  039%=      5-min Rain = 0
KCL2 192047Z 16013KT 35/19 A2994 RMK A01 T03540194  RH  039%=      5-min Rain = 0
KCL2 192048Z 16014KT 35/19 A2994 RMK A01 T03530191  RH  038%=      5-min Rain = 0
KCL2 192049Z 16011KT 35/19 A2994 RMK A01 T03530194  RH  040%=      5-min Rain = 0
KCL2 192050Z 17013KT 35/19 A2994 RMK A01 T03540192  RH  039%=      5-min Rain = 0
KCL2 192051Z 16012KT 35/19 A2994 RMK A01 T03520191  RH  039%=      5-min Rain = 0
KCL2 192052Z 18010KT 35/20 A2994 RMK A01 T03520196  RH  040%=      5-min Rain = 0
KCL2 192053Z 19013KT 36/19 A2994 RMK A01 T03550194  RH  039%=      5-min Rain = 0
KCL2 192054Z 16015G20KT 36/19 A2994 RMK A01 T03560191  RH  038%=      5-min Rain = 0
KCL2 192055Z 16013KT 36/19 A2994 RMK A01 T03560189  RH  038%=      5-min Rain = 0
KCL2 192056Z 18013KT 36/19 A2994 RMK A01 T03560191  RH  038%=      5-min Rain = 0
KCL2 192057Z 17013G20KT 36/19 A2994 RMK A01 T03580193  RH  038%=      5-min Rain = 0
KCL2 192058Z 17012G18KT 36/19 A2994 RMK A01 T03580194  RH  038%=      5-min Rain = 0
KCL2 192059Z 17017KT 36/19 A2994 RMK A01 T03580193  RH  038%=      5-min Rain = 0
KCL2 192100Z 16016G21KT 36/19 A2994 RMK A01 T03560189  RH  038%=      5-min Rain = 0
KCL2 192101Z 18015KT 36/19 A2994 RMK A01 T03550192  RH  038%=      5-min Rain = 0
KCL2 192102Z 18015KT 35/19 A2994 RMK A01 T03540190  RH  038%=      5-min Rain = 0
KCL2 192103Z 19014KT 35/19 A2994 RMK A01 T03530192  RH  039%=      5-min Rain = 0
KCL2 192104Z 20012KT 35/19 A2993 RMK A01 T03540192  RH  039%=      5-min Rain = 0
KCL2 192105Z 17009KT 35/19 A2994 RMK A01 T03530193  RH  039%=      5-min Rain = 0
KCL2 192106Z 16012KT 35/20 A2993 RMK A01 T03540195  RH  039%=      5-min Rain = 0
KCL2 192107Z 16018KT 36/19 A2993 RMK A01 T03560191  RH  038%=      5-min Rain = 0
KCL2 192108Z 17016KT 36/19 A2993 RMK A01 T03550190  RH  038%=      5-min Rain = 0
KCL2 192109Z 16012KT 36/19 A2993 RMK A01 T03550190  RH  038%=      5-min Rain = 0
KCL2 192110Z 16011KT 36/19 A2993 RMK A01 T03550192  RH  039%=      5-min Rain = 0
KCL2 192111Z 15012KT 36/19 A2993 RMK A01 T03560191  RH  038%=      5-min Rain = 0
KCL2 192112Z 15012KT 36/19 A2993 RMK A01 T03560190  RH  038%=      5-min Rain = 0
KCL2 192113Z 16012KT 36/19 A2993 RMK A01 T03560189  RH  038%=      5-min Rain = 0
KCL2 192114Z 16015KT 36/19 A2993 RMK A01 T03560191  RH  038%=      5-min Rain = 0
KCL2 192115Z 17015KT 36/19 A2993 RMK A01 T03550189  RH  038%=      5-min Rain = 0
KCL2 192116Z 16014KT 35/19 A2993 RMK A01 T03540189  RH  038%=      5-min Rain = 0
KCL2 192117Z 16014KT 35/19 A2993 RMK A01 T03530185  RH  037%=      5-min Rain = 0
KCL2 192118Z 16012KT 35/19 A2993 RMK A01 T03530187  RH  038%=      5-min Rain = 0
KCL2 192119Z 17015G21KT 35/19 A2993 RMK A01 T03540188  RH  038%=      5-min Rain = 0
KCL2 192120Z 17016G21KT 36/18 A2993 RMK A01 T03550184  RH  036%=      5-min Rain = 0
KCL2 192121Z 17015KT 35/19 A2993 RMK A01 T03540185  RH  037%=      5-min Rain = 0
KCL2 192122Z 16016KT 36/18 A2993 RMK A01 T03550182  RH  036%=      5-min Rain = 0
KCL2 192123Z 17014G19KT 36/18 A2993 RMK A01 T03550182  RH  036%=      5-min Rain = 0
KCL2 192124Z 18013KT 36/18 A2993 RMK A01 T03550182  RH  036%=      5-min Rain = 0
KCL2 192125Z 18011G16KT 36/18 A2993 RMK A01 T03550184  RH  037%=      5-min Rain = 0
KCL2 192126Z 20017KT 36/18 A2992 RMK A01 T03560183  RH  036%=      5-min Rain = 0
KCL2 192127Z 17014KT 36/18 A2992 RMK A01 T03570184  RH  036%=      5-min Rain = 0
KCL2 192128Z 19015G20KT 36/18 A2992 RMK A01 T03580181  RH  035%=      5-min Rain = 0
KCL2 192129Z 19013KT 36/18 A2992 RMK A01 T03560183  RH  036%=      5-min Rain = 0
KCL2 192130Z 18011KT 36/18 A2992 RMK A01 T03560183  RH  036%=      5-min Rain = 0
KCL2 192131Z 18015KT 36/18 A2992 RMK A01 T03560181  RH  036%=      5-min Rain = 0
KCL2 192132Z 18013KT 36/18 A2992 RMK A01 T03560181  RH  036%=      5-min Rain = 0
KCL2 192133Z 18010KT 36/18 A2992 RMK A01 T03550179  RH  035%=      5-min Rain = 0
KCL2 192134Z 18014G19KT 36/19 A2992 RMK A01 T03550185  RH  037%=      5-min Rain = 0
KCL2 192135Z 17014KT 36/18 A2992 RMK A01 T03570183  RH  036%=      5-min Rain = 0
KCL2 192136Z 18014G19KT 36/18 A2992 RMK A01 T03570184  RH  036%=      5-min Rain = 0
KCL2 192137Z 17015KT 36/18 A2992 RMK A01 T03570183  RH  036%=      5-min Rain = 0
KCL2 192138Z 17017KT 36/18 A2992 RMK A01 T03560180  RH  036%=      5-min Rain = 0
KCL2 192139Z 17015KT 36/18 A2992 RMK A01 T03550181  RH  036%=      5-min Rain = 0
KCL2 192140Z 17017KT 35/18 A2992 RMK A01 T03540179  RH  036%=      5-min Rain = 0
KCL2 192141Z 17014KT 35/18 A2992 RMK A01 T03540180  RH  036%=      5-min Rain = 0
KCL2 192142Z 17013KT 35/18 A2992 RMK A01 T03540179  RH  036%=      5-min Rain = 0
KCL2 192143Z 16011KT 35/18 A2992 RMK A01 T03540181  RH  036%=      5-min Rain = 0
KCL2 192144Z 15010G15KT 36/18 A2992 RMK A01 T03550183  RH  036%=      5-min Rain = 0
KCL2 192145Z 16012KT 36/18 A2992 RMK A01 T03560180  RH  035%=      5-min Rain = 0
KCL2 192146Z 16014KT 36/18 A2992 RMK A01 T03560182  RH  036%=      5-min Rain = 0
KCL2 192147Z 19008G14KT 36/19 A2992 RMK A01 T03570188  RH  037%=      5-min Rain = 0
KCL2 192148Z 19015KT 36/19 A2992 RMK A01 T03590185  RH  036%=      5-min Rain = 0
KCL2 192149Z 18016KT 36/18 A2992 RMK A01 T03590181  RH  035%=      5-min Rain = 0
KCL2 192150Z 18016KT 36/18 A2992 RMK A01 T03580178  RH  035%=      5-min Rain = 0
KCL2 192151Z 19012KT 36/18 A2992 RMK A01 T03570177  RH  035%=      5-min Rain = 0
KCL2 192152Z 17012G17KT 36/18 A2992 RMK A01 T03560180  RH  035%=      5-min Rain = 0
KCL2 192153Z 15016G22KT 36/18 A2992 RMK A01 T03560175  RH  034%=      5-min Rain = 0
KCL2 192154Z 15016KT 36/17 A2991 RMK A01 T03570171  RH  034%=      5-min Rain = 0
KCL2 192155Z 18013KT 36/18 A2992 RMK A01 T03580177  RH  034%=      5-min Rain = 0
KCL2 192156Z 19018G24KT 36/18 A2992 RMK A01 T03590175  RH  034%=      5-min Rain = 0
KCL2 192157Z 18018KT 36/17 A2992 RMK A01 T03570174  RH  034%=      5-min Rain = 0
KCL2 192158Z 18015KT 36/17 A2992 RMK A01 T03550172  RH  034%=      5-min Rain = 0
KCL2 192159Z 18015KT 35/17 A2992 RMK A01 T03540174  RH  034%=      5-min Rain = 0
KCL2 192200Z 18012KT 35/17 A2992 RMK A01 T03540174  RH  035%=      5-min Rain = 0
KCL2 192201Z 19011KT 35/18 A2992 RMK A01 T03540176  RH  035%=      5-min Rain = 0
KCL2 192202Z 18011KT 36/18 A2992 RMK A01 T03550180  RH  036%=      5-min Rain = 0
KCL2 192203Z 17011G16KT 36/18 A2992 RMK A01 T03570180  RH  035%=      5-min Rain = 0
KCL2 192204Z 18014KT 36/18 A2992 RMK A01 T03570181  RH  035%=      5-min Rain = 0
KCL2 192205Z 17012KT 36/18 A2992 RMK A01 T03560181  RH  036%=      5-min Rain = 0
KCL2 192206Z 17011KT 36/18 A2991 RMK A01 T03560180  RH  036%=      5-min Rain = 0
KCL2 192207Z 15012G18KT 36/18 A2992 RMK A01 T03560182  RH  036%=      5-min Rain = 0
KCL2 192208Z 15014G19KT 36/18 A2991 RMK A01 T03560178  RH  035%=      5-min Rain = 0
KCL2 192209Z 17016KT 36/18 A2991 RMK A01 T03560179  RH  035%=      5-min Rain = 0
KCL2 192210Z 18014KT 36/18 A2991 RMK A01 T03560181  RH  036%=      5-min Rain = 0
KCL2 192211Z 18013G18KT 36/18 A2992 RMK A01 T03570180  RH  035%=      5-min Rain = 0
KCL2 192212Z 19016KT 36/18 A2991 RMK A01 T03560180  RH  035%=      5-min Rain = 0
KCL2 192213Z 19012G18KT 36/18 A2991 RMK A01 T03550179  RH  035%=      5-min Rain = 0
KCL2 192214Z 18012KT 36/18 A2992 RMK A01 T03550179  RH  035%=      5-min Rain = 0
KCL2 192215Z 16014KT 36/18 A2992 RMK A01 T03560180  RH  035%=      5-min Rain = 0
KCL2 192216Z 15012KT 36/18 A2992 RMK A01 T03560177  RH  035%=      5-min Rain = 0
KCL2 192217Z 17010KT 36/18 A2991 RMK A01 T03550182  RH  036%=      5-min Rain = 0
KCL2 192218Z 16010KT 36/18 A2992 RMK A01 T03570184  RH  036%=      5-min Rain = 0
KCL2 192219Z 16009KT 36/18 A2991 RMK A01 T03580183  RH  036%=      5-min Rain = 0
KCL2 192220Z 17012G17KT 36/18 A2991 RMK A01 T03580182  RH  036%=      5-min Rain = 0
KCL2 192221Z 17016KT 36/18 A2991 RMK A01 T03570180  RH  035%=      5-min Rain = 0
KCL2 192222Z 18011G17KT 36/18 A2991 RMK A01 T03570180  RH  035%=      5-min Rain = 0
KCL2 192223Z 19011KT 36/18 A2991 RMK A01 T03570179  RH  035%=      5-min Rain = 0
KCL2 192224Z 17011G17KT 36/18 A2991 RMK A01 T03560177  RH  035%=      5-min Rain = 0
KCL2 192225Z 16013KT 36/18 A2991 RMK A01 T03560179  RH  035%=      5-min Rain = 0
KCL2 192226Z 16010KT 36/18 A2991 RMK A01 T03550176  RH  035%=      5-min Rain = 0
KCL2 192227Z 17014KT 36/17 A2991 RMK A01 T03550172  RH  034%=      5-min Rain = 0
KCL2 192228Z 18012KT 36/17 A2991 RMK A01 T03550170  RH  033%=      5-min Rain = 0
KCL2 192229Z 18012KT 36/17 A2991 RMK A01 T03560171  RH  034%=      5-min Rain = 0
KCL2 192230Z 17012KT 36/17 A2991 RMK A01 T03570167  RH  033%=      5-min Rain = 0
KCL2 192231Z 18012KT 36/17 A2991 RMK A01 T03570170  RH  033%=      5-min Rain = 0
KCL2 192232Z 17012KT 36/17 A2991 RMK A01 T03570173  RH  034%=      5-min Rain = 0
KCL2 192233Z 18014KT 36/17 A2991 RMK A01 T03570172  RH  033%=      5-min Rain = 0
KCL2 192234Z 18013KT 36/18 A2991 RMK A01 T03560175  RH  034%=      5-min Rain = 0
KCL2 192235Z 17014KT 36/17 A2991 RMK A01 T03560173  RH  034%=      5-min Rain = 0
KCL2 192236Z 17014KT 36/17 A2991 RMK A01 T03560171  RH  033%=      5-min Rain = 0
KCL2 192237Z 17011KT 36/17 A2991 RMK A01 T03560174  RH  034%=      5-min Rain = 0
KCL2 192238Z 17015KT 36/17 A2991 RMK A01 T03570172  RH  034%=      5-min Rain = 0
KCL2 192239Z 17014KT 36/17 A2991 RMK A01 T03570171  RH  033%=      5-min Rain = 0
KCL2 192240Z 17011KT 36/17 A2991 RMK A01 T03550171  RH  034%=      5-min Rain = 0
KCL2 192241Z 16011KT 35/17 A2991 RMK A01 T03540173  RH  034%=      5-min Rain = 0
KCL2 192242Z 17012KT 36/17 A2991 RMK A01 T03550174  RH  034%=      5-min Rain = 0
KCL2 192243Z 16012KT 36/18 A2991 RMK A01 T03550176  RH  035%=      5-min Rain = 0
KCL2 192244Z 16013KT 36/18 A2991 RMK A01 T03550175  RH  035%=      5-min Rain = 0
KCL2 192245Z 15014KT 36/17 A2991 RMK A01 T03550174  RH  034%=      5-min Rain = 0
KCL2 192246Z 16013G18KT 36/17 A2991 RMK A01 T03550172  RH  034%=      5-min Rain = 0
KCL2 192247Z 17013KT 36/17 A2991 RMK A01 T03550171  RH  034%=      5-min Rain = 0
KCL2 192248Z 16014KT 36/17 A2991 RMK A01 T03550171  RH  034%=      5-min Rain = 0
KCL2 192249Z 15013KT 36/17 A299 RMK A01 T03550171  RH  034%=      5-min Rain = 0
KCL2 192250Z 15012KT 36/17 A2991 RMK A01 T03550172  RH  034%=      5-min Rain = 0
KCL2 192251Z 16013KT 36/17 A299 RMK A01 T03550169  RH  033%=      5-min Rain = 0
KCL2 192252Z 16014G19KT 36/17 A299 RMK A01 T03550171  RH  034%=      5-min Rain = 0
KCL2 192253Z 17016KT 35/17 A299 RMK A01 T03540169  RH  033%=      5-min Rain = 0
KCL2 192254Z 17013KT 35/17 A299 RMK A01 T03540171  RH  034%=      5-min Rain = 0
KCL2 192255Z 17010KT 35/17 A299 RMK A01 T03540172  RH  034%=      5-min Rain = 0
KCL2 192256Z 16009KT 35/18 A2991 RMK A01 T03540177  RH  035%=      5-min Rain = 0
KCL2 192257Z 16009KT 36/17 A2991 RMK A01 T03560174  RH  034%=      5-min Rain = 0
KCL2 192258Z 16010KT 36/18 A2991 RMK A01 T03570176  RH  034%=      5-min Rain = 0
KCL2 192259Z 15015KT 36/17 A2991 RMK A01 T03570168  RH  033%=      5-min Rain = 0
KCL2 192300Z 16016KT 36/17 A299 RMK A01 T03560166  RH  032%=      5-min Rain = 0
KCL2 192301Z 16014KT 36/16 A299 RMK A01 T03550163  RH  032%=      5-min Rain = 0
KCL2 192302Z 16015KT 35/16 A299 RMK A01 T03540161  RH  032%=      5-min Rain = 0
KCL2 192303Z 17013KT 35/16 A299 RMK A01 T03530162  RH  032%=      5-min Rain = 0
KCL2 192304Z 16012KT 35/17 A299 RMK A01 T03530165  RH  033%=      5-min Rain = 0
KCL2 192305Z 16011KT 35/16 A299 RMK A01 T03530164  RH  032%=      5-min Rain = 0
KCL2 192306Z 16012KT 35/17 A299 RMK A01 T03530166  RH  033%=      5-min Rain = 0
KCL2 192307Z 18012KT 35/17 A299 RMK A01 T03540167  RH  033%=      5-min Rain = 0
KCL2 192308Z 17012KT 35/17 A299 RMK A01 T03540166  RH  033%=      5-min Rain = 0
KCL2 192309Z 16011G17KT 35/17 A299 RMK A01 T03540169  RH  033%=      5-min Rain = 0
KCL2 192310Z 16015KT 36/16 A299 RMK A01 T03550164  RH  032%=      5-min Rain = 0
KCL2 192311Z 17012KT 35/16 A299 RMK A01 T03540163  RH  032%=      5-min Rain = 0
KCL2 192312Z 17013KT 35/16 A299 RMK A01 T03530164  RH  033%=      5-min Rain = 0
KCL2 192313Z 16012KT 35/16 A299 RMK A01 T03530164  RH  033%=      5-min Rain = 0
KCL2 192314Z 17012KT 35/16 A299 RMK A01 T03530161  RH  032%=      5-min Rain = 0
KCL2 192315Z 17009KT 35/16 A299 RMK A01 T03520161  RH  032%=      5-min Rain = 0
KCL2 192316Z 16012KT 35/16 A299 RMK A01 T03520159  RH  032%=      5-min Rain = 0
KCL2 192317Z 15012G18KT 35/16 A299 RMK A01 T03520158  RH  032%=      5-min Rain = 0
KCL2 192318Z 16013KT 35/15 A299 RMK A01 T03530154  RH  031%=      5-min Rain = 0
KCL2 192319Z 16011KT 35/16 A299 RMK A01 T03530157  RH  031%=      5-min Rain = 0
KCL2 192320Z 17010G15KT 35/16 A299 RMK A01 T03530160  RH  032%=      5-min Rain = 0
KCL2 192321Z 15011G16KT 35/16 A299 RMK A01 T03530160  RH  032%=      5-min Rain = 0
KCL2 192322Z 16009KT 35/16 A299 RMK A01 T03530161  RH  032%=      5-min Rain = 0
KCL2 192323Z 16012KT 35/16 A299 RMK A01 T03540161  RH  032%=      5-min Rain = 0
KCL2 192324Z 17013KT 35/17 A299 RMK A01 T03540165  RH  032%=      5-min Rain = 0
KCL2 192325Z 16011KT 35/17 A299 RMK A01 T03530166  RH  033%=      5-min Rain = 0
KCL2 192326Z 16012KT 35/17 A299 RMK A01 T03520166  RH  033%=      5-min Rain = 0
KCL2 192327Z 15012KT 35/17 A299 RMK A01 T03520166  RH  033%=      5-min Rain = 0
KCL2 192328Z 16010G17KT 35/17 A299 RMK A01 T03520166  RH  033%=      5-min Rain = 0
KCL2 192329Z 15016KT 35/17 A299 RMK A01 T03520165  RH  033%=      5-min Rain = 0
KCL2 192330Z 15017G22KT 35/16 A299 RMK A01 T03520163  RH  033%=      5-min Rain = 0
KCL2 192331Z 16013KT 35/16 A299 RMK A01 T03520161  RH  032%=      5-min Rain = 0
KCL2 192332Z 17013KT 35/16 A299 RMK A01 T03520161  RH  032%=      5-min Rain = 0
KCL2 192333Z 16011KT 35/16 A299 RMK A01 T03520161  RH  032%=      5-min Rain = 0
KCL2 192334Z 15012KT 35/16 A299 RMK A01 T03520162  RH  032%=      5-min Rain = 0
KCL2 192335Z 16013KT 35/16 A299 RMK A01 T03520162  RH  032%=      5-min Rain = 0
KCL2 192336Z 16011KT 35/16 A299 RMK A01 T03520162  RH  032%=      5-min Rain = 0
KCL2 192337Z 15012KT 35/16 A299 RMK A01 T03520163  RH  033%=      5-min Rain = 0
KCL2 192338Z 15012KT 35/16 A299 RMK A01 T03520163  RH  033%=      5-min Rain = 0
KCL2 192339Z 16012G20KT 35/16 A299 RMK A01 T03520164  RH  033%=      5-min Rain = 0
KCL2 192340Z 17013G19KT 35/16 A299 RMK A01 T03520163  RH  033%=      5-min Rain = 0
KCL2 192341Z 18007KT 35/17 A299 RMK A01 T03510173  RH  035%=      5-min Rain = 0
KCL2 192342Z 18012KT 35/17 A299 RMK A01 T03510167  RH  033%=      5-min Rain = 0
KCL2 192343Z 18010KT 35/16 A299 RMK A01 T03510160  RH  032%=      5-min Rain = 0
KCL2 192344Z 17012KT 35/16 A299 RMK A01 T03510161  RH  032%=      5-min Rain = 0
KCL2 192345Z 17015KT 35/16 A299 RMK A01 T03500157  RH  032%=      5-min Rain = 0
KCL2 192346Z 16014KT 35/16 A299 RMK A01 T03500157  RH  032%=      5-min Rain = 0
KCL2 192347Z 16010KT 35/16 A299 RMK A01 T03490159  RH  032%=      5-min Rain = 0
KCL2 192348Z 16008KT 35/16 A299 RMK A01 T03500161  RH  032%=      5-min Rain = 0
KCL2 192349Z 16010KT 35/16 A299 RMK A01 T03500160  RH  032%=      5-min Rain = 0
KCL2 192350Z 16010KT 35/16 A299 RMK A01 T03500161  RH  032%=      5-min Rain = 0
KCL2 192351Z 16009KT 35/16 A299 RMK A01 T03500163  RH  033%=      5-min Rain = 0
KCL2 192352Z 16011KT 35/16 A299 RMK A01 T03510162  RH  032%=      5-min Rain = 0
KCL2 192353Z 17012KT 35/16 A299 RMK A01 T03510159  RH  032%=      5-min Rain = 0
KCL2 192354Z 16009KT 35/16 A299 RMK A01 T03500161  RH  032%=      5-min Rain = 0
KCL2 192355Z 17010KT 35/16 A299 RMK A01 T03500162  RH  033%=      5-min Rain = 0
KCL2 192356Z 18009G14KT 35/16 A299 RMK A01 T03500161  RH  033%=      5-min Rain = 0
KCL2 192357Z 17010KT 35/16 A299 RMK A01 T03490162  RH  033%=      5-min Rain = 0
KCL2 192358Z 17011KT 35/16 A299 RMK A01 T03490160  RH  032%=      5-min Rain = 0
KCL2 192359Z 18011G17KT 35/16 A299 RMK A01 T03490161  RH  033%=      5-min Rain = 0
KCL2 200000Z 17013KT 35/16 A299 RMK A01 T03490157  RH  032%=      5-min Rain = 0
KCL2 200001Z 16013KT 35/16 A299 RMK A01 T03490159  RH  032%=      5-min Rain = 0
KCL2 200002Z 17012KT 35/16 A299 RMK A01 T03490156  RH  032%=      5-min Rain = 0
KCL2 200003Z 17011KT 35/16 A299 RMK A01 T03480158  RH  032%=      5-min Rain = 0
KCL2 200004Z 17011KT 35/16 A299 RMK A01 T03480159  RH  032%=      5-min Rain = 0
KCL2 200005Z 16011KT 35/16 A299 RMK A01 T03480158  RH  032%=      5-min Rain = 0
KCL2 200006Z 16010KT 35/16 A299 RMK A01 T03480159  RH  032%=      5-min Rain = 0
KCL2 200007Z 16011KT 35/16 A299 RMK A01 T03480158  RH  032%=      5-min Rain = 0
KCL2 200008Z 16011KT 35/16 A299 RMK A01 T03480157  RH  032%=      5-min Rain = 0
KCL2 200009Z 16010KT 35/16 A299 RMK A01 T03480161  RH  033%=      5-min Rain = 0
KCL2 200010Z 17011KT 35/16 A299 RMK A01 T03480159  RH  033%=      5-min Rain = 0
KCL2 200011Z 17012KT 35/16 A299 RMK A01 T03470156  RH  032%=      5-min Rain = 0
KCL2 200012Z 18009KT 35/16 A299 RMK A01 T03470158  RH  032%=      5-min Rain = 0
KCL2 200013Z 17007KT 35/16 A299 RMK A01 T03460160  RH  033%=      5-min Rain = 0
KCL2 200014Z 17011KT 35/16 A299 RMK A01 T03460160  RH  033%=      5-min Rain = 0
KCL2 200015Z 17009KT 35/16 A299 RMK A01 T03460159  RH  033%=      5-min Rain = 0
KCL2 200016Z 17011G16KT 35/16 A299 RMK A01 T03450159  RH  033%=      5-min Rain = 0
KCL2 200017Z 17012KT 35/16 A299 RMK A01 T03460155  RH  032%=      5-min Rain = 0
KCL2 200018Z 18010G15KT 35/16 A299 RMK A01 T03450157  RH  033%=      5-min Rain = 0
KCL2 200019Z 17013KT 35/16 A299 RMK A01 T03450155  RH  032%=      5-min Rain = 0
KCL2 200020Z 17011KT 35/15 A299 RMK A01 T03450154  RH  032%=      5-min Rain = 0
KCL2 200021Z 17011KT 35/16 A299 RMK A01 T03450156  RH  032%=      5-min Rain = 0
KCL2 200022Z 18012KT 35/16 A299 RMK A01 T03450156  RH  032%=      5-min Rain = 0
KCL2 200023Z 17011KT 34/16 A299 RMK A01 T03440156  RH  032%=      5-min Rain = 0
KCL2 200024Z 18010KT 34/16 A299 RMK A01 T03440157  RH  033%=      5-min Rain = 0
KCL2 200025Z 17011KT 34/16 A299 RMK A01 T03440157  RH  033%=      5-min Rain = 0
KCL2 200026Z 17010KT 34/16 A299 RMK A01 T03430157  RH  033%=      5-min Rain = 0
KCL2 200027Z 18009KT 34/16 A299 RMK A01 T03430160  RH  034%=      5-min Rain = 0
KCL2 200028Z 17011KT 34/16 A299 RMK A01 T03430159  RH  033%=      5-min Rain = 0
KCL2 200029Z 17010KT 34/16 A299 RMK A01 T03430156  RH  033%=      5-min Rain = 0
KCL2 200030Z 16007KT 34/16 A299 RMK A01 T03430161  RH  034%=      5-min Rain = 0
KCL2 200031Z 16011G17KT 34/16 A299 RMK A01 T03420161  RH  034%=      5-min Rain = 0
KCL2 200032Z 17012KT 34/16 A299 RMK A01 T03420160  RH  034%=      5-min Rain = 0
KCL2 200033Z 17011KT 34/16 A299 RMK A01 T03420162  RH  034%=      5-min Rain = 0
KCL2 200034Z 16012KT 34/16 A299 RMK A01 T03410164  RH  035%=      5-min Rain = 0
KCL2 200035Z 17011KT 34/16 A299 RMK A01 T03410164  RH  035%=      5-min Rain = 0
KCL2 200036Z 16009KT 34/16 A299 RMK A01 T03400164  RH  035%=      5-min Rain = 0
KCL2 200037Z 16011KT 34/17 A299 RMK A01 T03400166  RH  035%=      5-min Rain = 0
KCL2 200038Z 16011KT 34/17 A299 RMK A01 T03390165  RH  035%=      5-min Rain = 0
KCL2 200039Z 17009KT 34/17 A299 RMK A01 T03390165  RH  035%=      5-min Rain = 0
KCL2 200040Z 17009KT 34/17 A2991 RMK A01 T03390167  RH  036%=      5-min Rain = 0
KCL2 200041Z 17012KT 34/17 A299 RMK A01 T03390166  RH  036%=      5-min Rain = 0
KCL2 200042Z 17012KT 34/16 A299 RMK A01 T03390163  RH  035%=      5-min Rain = 0
KCL2 200043Z 16009KT 34/17 A2991 RMK A01 T03380166  RH  036%=      5-min Rain = 0
KCL2 200044Z 16012KT 34/17 A299 RMK A01 T03380165  RH  036%=      5-min Rain = 0
KCL2 200045Z 16012KT 34/16 A299 RMK A01 T03380163  RH  035%=      5-min Rain = 0
KCL2 200046Z 16015KT 34/16 A299 RMK A01 T03380161  RH  035%=      5-min Rain = 0
KCL2 200047Z 17011KT 34/16 A299 RMK A01 T03380161  RH  035%=      5-min Rain = 0
KCL2 200048Z 16011KT 34/16 A299 RMK A01 T03380163  RH  035%=      5-min Rain = 0
KCL2 200049Z 16012KT 34/16 A299 RMK A01 T03380163  RH  035%=      5-min Rain = 0
KCL2 200050Z 16012KT 34/16 A299 RMK A01 T03370162  RH  035%=      5-min Rain = 0
KCL2 200051Z 16010G15KT 34/16 A299 RMK A01 T03370163  RH  035%=      5-min Rain = 0
KCL2 200052Z 17012KT 34/16 A2991 RMK A01 T03360164  RH  036%=      5-min Rain = 0
KCL2 200053Z 16011KT 34/16 A2991 RMK A01 T03360163  RH  036%=      5-min Rain = 0
KCL2 200054Z 16010KT 34/16 A2991 RMK A01 T03350164  RH  036%=      5-min Rain = 0
KCL2 200055Z 16010KT 34/16 A2991 RMK A01 T03350164  RH  036%=      5-min Rain = 0
KCL2 200056Z 16009KT 33/17 A2991 RMK A01 T03340165  RH  037%=      5-min Rain = 0
KCL2 200057Z 16008KT 33/17 A2991 RMK A01 T03330166  RH  037%=      5-min Rain = 0
KCL2 200058Z 16009KT 33/17 A2991 RMK A01 T03330166  RH  037%=      5-min Rain = 0
KCL2 200059Z 16009KT 33/17 A2991 RMK A01 T03320166  RH  037%=      5-min Rain = 0
KCL2 200100Z 17009KT 33/17 A2991 RMK A01 T03320166  RH  037%=      5-min Rain = 0
KCL2 200101Z 16009KT 33/17 A2991 RMK A01 T03310166  RH  037%=      5-min Rain = 0
KCL2 200102Z 17010KT 33/17 A2991 RMK A01 T03310165  RH  037%=      5-min Rain = 0
KCL2 200103Z 17009KT 33/17 A2991 RMK A01 T03320166  RH  037%=      5-min Rain = 0
KCL2 200104Z 17009KT 33/17 A2991 RMK A01 T03310166  RH  037%=      5-min Rain = 0
KCL2 200105Z 16009KT 33/17 A2991 RMK A01 T03300165  RH  037%=      5-min Rain = 0
KCL2 200106Z 16009KT 33/17 A2991 RMK A01 T03300166  RH  038%=      5-min Rain = 0
KCL2 200107Z 16008KT 33/17 A2991 RMK A01 T03290165  RH  037%=      5-min Rain = 0
KCL2 200108Z 16008KT 33/17 A2991 RMK A01 T03290165  RH  037%=      5-min Rain = 0
KCL2 200109Z 16008KT 33/17 A2991 RMK A01 T03280165  RH  038%=      5-min Rain = 0
KCL2 200110Z 16009KT 33/17 A2991 RMK A01 T03280165  RH  038%=      5-min Rain = 0
KCL2 200111Z 16008KT 33/16 A2991 RMK A01 T03280164  RH  038%=      5-min Rain = 0
KCL2 200112Z 16008KT 33/17 A2991 RMK A01 T03280165  RH  038%=      5-min Rain = 0
KCL2 200113Z 16007KT 33/17 A2991 RMK A01 T03270165  RH  038%=      5-min Rain = 0
KCL2 200114Z 16008KT 33/17 A2991 RMK A01 T03260165  RH  038%=      5-min Rain = 0
KCL2 200115Z 16007KT 33/17 A2991 RMK A01 T03260165  RH  038%=      5-min Rain = 0
KCL2 200116Z 16007KT 33/17 A2991 RMK A01 T03250165  RH  038%=      5-min Rain = 0
KCL2 200117Z 16007KT 32/17 A2991 RMK A01 T03240166  RH  039%=      5-min Rain = 0
KCL2 200118Z 16007KT 32/17 A2991 RMK A01 T03230166  RH  039%=      5-min Rain = 0
KCL2 200119Z 16006KT 32/17 A2991 RMK A01 T03220166  RH  039%=      5-min Rain = 0
KCL2 200120Z 16008KT 32/17 A2991 RMK A01 T03210166  RH  039%=      5-min Rain = 0
KCL2 200121Z 16008KT 32/17 A2991 RMK A01 T03210165  RH  039%=      5-min Rain = 0
KCL2 200122Z 16006KT 32/16 A2991 RMK A01 T03200164  RH  039%=      5-min Rain = 0
KCL2 200123Z 16006KT 32/17 A2991 RMK A01 T03200165  RH  040%=      5-min Rain = 0
KCL2 200124Z 16007KT 32/16 A2991 RMK A01 T03190164  RH  040%=      5-min Rain = 0
KCL2 200125Z 16006KT 32/16 A2991 RMK A01 T03180164  RH  040%=      5-min Rain = 0
KCL2 200126Z 16007KT 32/16 A2991 RMK A01 T03170164  RH  040%=      5-min Rain = 0
KCL2 200127Z 15007KT 32/16 A2991 RMK A01 T03170164  RH  040%=      5-min Rain = 0
KCL2 200128Z 15007KT 32/16 A2991 RMK A01 T03160164  RH  040%=      5-min Rain = 0
KCL2 200129Z 15006KT 32/16 A2991 RMK A01 T03160164  RH  040%=      5-min Rain = 0
KCL2 200130Z 15007KT 32/16 A2991 RMK A01 T03160163  RH  040%=      5-min Rain = 0
KCL2 200131Z 15006KT 32/16 A2991 RMK A01 T03150163  RH  040%=      5-min Rain = 0
KCL2 200132Z 15006KT 31/16 A2991 RMK A01 T03140164  RH  040%=      5-min Rain = 0
KCL2 200133Z 16008KT 31/16 A2991 RMK A01 T03130163  RH  041%=      5-min Rain = 0
KCL2 200134Z 16008KT 31/16 A2991 RMK A01 T03130163  RH  040%=      5-min Rain = 0
KCL2 200135Z 15008KT 31/16 A2991 RMK A01 T03130163  RH  040%=      5-min Rain = 0
KCL2 200136Z 15007KT 31/16 A2991 RMK A01 T03130163  RH  041%=      5-min Rain = 0
KCL2 200137Z 15007KT 31/16 A2991 RMK A01 T03130164  RH  041%=      5-min Rain = 0
KCL2 200138Z 16008KT 31/16 A2991 RMK A01 T03120164  RH  041%=      5-min Rain = 0
KCL2 200139Z 15006KT 31/17 A2991 RMK A01 T03120165  RH  041%=      5-min Rain = 0
KCL2 200140Z 15007KT 31/17 A2991 RMK A01 T03110165  RH  041%=      5-min Rain = 0
KCL2 200141Z 16007KT 31/17 A2991 RMK A01 T03100165  RH  042%=      5-min Rain = 0
KCL2 200142Z 15009KT 31/17 A2991 RMK A01 T03100165  RH  042%=      5-min Rain = 0
KCL2 200143Z 16008KT 31/17 A2991 RMK A01 T03100165  RH  042%=      5-min Rain = 0
KCL2 200144Z 16008KT 31/17 A2991 RMK A01 T03100165  RH  042%=      5-min Rain = 0
KCL2 200145Z 16008KT 31/17 A2991 RMK A01 T03100165  RH  042%=      5-min Rain = 0
KCL2 200146Z 16008KT 31/17 A2991 RMK A01 T03100165  RH  042%=      5-min Rain = 0
KCL2 200147Z 16008KT 31/17 A2991 RMK A01 T03110166  RH  042%=      5-min Rain = 0
KCL2 200148Z 16006KT 31/17 A2991 RMK A01 T03110166  RH  042%=      5-min Rain = 0
KCL2 200149Z 16007KT 31/17 A2991 RMK A01 T03100166  RH  042%=      5-min Rain = 0
KCL2 200150Z 16008KT 31/17 A2991 RMK A01 T03090166  RH  042%=      5-min Rain = 0
KCL2 200151Z 16008KT 31/17 A2992 RMK A01 T03090166  RH  042%=      5-min Rain = 0
KCL2 200152Z 15007KT 31/17 A2992 RMK A01 T03090165  RH  042%=      5-min Rain = 0
KCL2 200153Z 16008KT 31/17 A2992 RMK A01 T03090166  RH  042%=      5-min Rain = 0
KCL2 200154Z 16008KT 31/17 A2992 RMK A01 T03090166  RH  042%=      5-min Rain = 0
KCL2 200155Z 16007KT 31/17 A2992 RMK A01 T03080166  RH  042%=      5-min Rain = 0
KCL2 200156Z 16007KT 31/17 A2992 RMK A01 T03080166  RH  042%=      5-min Rain = 0
KCL2 200157Z 16007KT 31/17 A2992 RMK A01 T03070166  RH  043%=      5-min Rain = 0
KCL2 200158Z 16007KT 31/17 A2992 RMK A01 T03050166  RH  043%=      5-min Rain = 0
KCL2 200159Z 16008KT 31/17 A2992 RMK A01 T03050165  RH  043%=      5-min Rain = 0
KCL2 200200Z 16007KT 31/17 A2992 RMK A01 T03050165  RH  043%=      5-min Rain = 0
KCL2 200201Z 16008KT 31/17 A2992 RMK A01 T03050166  RH  043%=      5-min Rain = 0
KCL2 200202Z 16008KT 30/17 A2992 RMK A01 T03040165  RH  043%=      5-min Rain = 0
KCL2 200203Z 15007KT 30/17 A2992 RMK A01 T03040165  RH  043%=      5-min Rain = 0
KCL2 200204Z 15007KT 30/17 A2992 RMK A01 T03040166  RH  043%=      5-min Rain = 0
KCL2 200205Z 15006KT 30/17 A2992 RMK A01 T03030165  RH  043%=      5-min Rain = 0
KCL2 200206Z 15008KT 30/17 A2992 RMK A01 T03030165  RH  044%=      5-min Rain = 0
KCL2 200207Z 16008KT 30/16 A2992 RMK A01 T03020164  RH  043%=      5-min Rain = 0
KCL2 200208Z 15008KT 30/16 A2992 RMK A01 T03020164  RH  043%=      5-min Rain = 0
KCL2 200209Z 15008KT 30/16 A2992 RMK A01 T03030164  RH  043%=      5-min Rain = 0
KCL2 200210Z 15007KT 30/16 A2992 RMK A01 T03030164  RH  043%=      5-min Rain = 0
KCL2 200211Z 15007KT 30/17 A2992 RMK A01 T03030165  RH  043%=      5-min Rain = 0
KCL2 200212Z 15007KT 30/17 A2992 RMK A01 T03020165  RH  043%=      5-min Rain = 0
KCL2 200213Z 15007KT 30/17 A2992 RMK A01 T03020165  RH  044%=      5-min Rain = 0
KCL2 200214Z 15007KT 30/17 A2992 RMK A01 T03010165  RH  044%=      5-min Rain = 0
KCL2 200215Z 14007KT 30/17 A2992 RMK A01 T03010165  RH  044%=      5-min Rain = 0
KCL2 200216Z 15007KT 30/17 A2992 RMK A01 T03000165  RH  044%=      5-min Rain = 0
KCL2 200217Z 15008KT 30/17 A2992 RMK A01 T02990165  RH  044%=      5-min Rain = 0
KCL2 200218Z 15008KT 30/16 A2992 RMK A01 T02990164  RH  044%=      5-min Rain = 0
KCL2 200219Z 15007KT 30/16 A2992 RMK A01 T03000164  RH  044%=      5-min Rain = 0
KCL2 200220Z 14008KT 30/16 A2992 RMK A01 T03000164  RH  044%=      5-min Rain = 0
KCL2 200221Z 15007KT 30/16 A2992 RMK A01 T03000164  RH  044%=      5-min Rain = 0
KCL2 200222Z 15008KT 30/16 A2992 RMK A01 T02990164  RH  044%=      5-min Rain = 0
KCL2 200223Z 15008KT 30/16 A2992 RMK A01 T02990164  RH  044%=      5-min Rain = 0
KCL2 200224Z 15007KT 30/16 A2992 RMK A01 T02980164  RH  044%=      5-min Rain = 0
KCL2 200225Z 15007KT 30/16 A2992 RMK A01 T02980164  RH  044%=      5-min Rain = 0
KCL2 200226Z 15007KT 30/16 A2992 RMK A01 T02970163  RH  044%=      5-min Rain = 0
KCL2 200227Z 15008KT 30/16 A2992 RMK A01 T02970164  RH  045%=      5-min Rain = 0
KCL2 200228Z 15008KT 30/16 A2992 RMK A01 T02960164  RH  045%=      5-min Rain = 0
KCL2 200229Z 15008KT 30/16 A2992 RMK A01 T02960164  RH  045%=      5-min Rain = 0
KCL2 200230Z 15009KT 30/17 A2992 RMK A01 T02960165  RH  045%=      5-min Rain = 0
KCL2 200231Z 15008KT 30/17 A2992 RMK A01 T02960165  RH  045%=      5-min Rain = 0
KCL2 200232Z 15008KT 30/17 A2992 RMK A01 T02960165  RH  045%=      5-min Rain = 0
KCL2 200233Z 15008KT 30/17 A2992 RMK A01 T02960166  RH  045%=      5-min Rain = 0
KCL2 200234Z 16008KT 30/17 A2992 RMK A01 T02960166  RH  045%=      5-min Rain = 0
KCL2 200235Z 15007KT 30/17 A2993 RMK A01 T02960166  RH  046%=      5-min Rain = 0
KCL2 200236Z 15008KT 30/17 A2993 RMK A01 T02950167  RH  046%=      5-min Rain = 0
KCL2 200237Z 15009KT 29/17 A2993 RMK A01 T02940167  RH  046%=      5-min Rain = 0
KCL2 200238Z 16009KT 29/17 A2993 RMK A01 T02940167  RH  046%=      5-min Rain = 0
KCL2 200239Z 15007KT 29/17 A2993 RMK A01 T02940168  RH  046%=      5-min Rain = 0
KCL2 200240Z 15008KT 29/17 A2993 RMK A01 T02940169  RH  047%=      5-min Rain = 0
KCL2 200241Z 16007KT 29/17 A2993 RMK A01 T02930169  RH  047%=      5-min Rain = 0
KCL2 200242Z 16008G13KT 29/17 A2993 RMK A01 T02920169  RH  047%=      5-min Rain = 0
KCL2 200243Z 15008KT 29/17 A2993 RMK A01 T02920170  RH  048%=      5-min Rain = 0
KCL2 200244Z 16008KT 29/17 A2993 RMK A01 T02920170  RH  048%=      5-min Rain = 0
KCL2 200245Z 15008KT 29/17 A2993 RMK A01 T02920171  RH  048%=      5-min Rain = 0
KCL2 200246Z 15008KT 29/17 A2993 RMK A01 T02920171  RH  048%=      5-min Rain = 0
KCL2 200247Z 15008KT 29/17 A2993 RMK A01 T02910171  RH  048%=      5-min Rain = 0
KCL2 200248Z 15008KT 29/17 A2993 RMK A01 T02920172  RH  049%=      5-min Rain = 0
KCL2 200249Z 16008KT 29/17 A2993 RMK A01 T02910172  RH  049%=      5-min Rain = 0
KCL2 200250Z 16008KT 29/17 A2993 RMK A01 T02910172  RH  049%=      5-min Rain = 0
KCL2 200251Z 16008KT 29/17 A2993 RMK A01 T02920173  RH  049%=      5-min Rain = 0
KCL2 200252Z 16007KT 29/17 A2993 RMK A01 T02910173  RH  049%=      5-min Rain = 0
KCL2 200253Z 15008KT 29/17 A2993 RMK A01 T02910174  RH  049%=      5-min Rain = 0
KCL2 200254Z 15008KT 29/17 A2993 RMK A01 T02900174  RH  049%=      5-min Rain = 0
KCL2 200255Z 16008KT 29/17 A2993 RMK A01 T02900174  RH  049%=      5-min Rain = 0
KCL2 200256Z 15007KT 29/17 A2993 RMK A01 T02900174  RH  050%=      5-min Rain = 0
KCL2 200257Z 16008KT 29/17 A2994 RMK A01 T02900174  RH  050%=      5-min Rain = 0
KCL2 200258Z 15008KT 29/18 A2994 RMK A01 T02890175  RH  050%=      5-min Rain = 0
KCL2 200259Z 15008KT 29/18 A2994 RMK A01 T02890175  RH  050%=      5-min Rain = 0
KCL2 200300Z 15007KT 29/18 A2994 RMK A01 T02890176  RH  050%=      5-min Rain = 0
KCL2 200301Z 16007KT 29/18 A2994 RMK A01 T02890176  RH  050%=      5-min Rain = 0
KCL2 200302Z 15008KT 29/18 A2994 RMK A01 T02880175  RH  051%=      5-min Rain = 0
KCL2 200303Z 15009KT 29/18 A2994 RMK A01 T02880176  RH  051%=      5-min Rain = 0
KCL2 200304Z 16008KT 29/18 A2994 RMK A01 T02880176  RH  051%=      5-min Rain = 0
KCL2 200305Z 15008KT 29/18 A2994 RMK A01 T02880176  RH  051%=      5-min Rain = 0
KCL2 200306Z 15009KT 29/18 A2994 RMK A01 T02890176  RH  051%=      5-min Rain = 0
KCL2 200307Z 15009KT 29/18 A2994 RMK A01 T02880176  RH  051%=      5-min Rain = 0
KCL2 200308Z 16008KT 29/18 A2994 RMK A01 T02880176  RH  051%=      5-min Rain = 0
KCL2 200309Z 16009KT 29/18 A2994 RMK A01 T02880176  RH  051%=      5-min Rain = 0
KCL2 200310Z 16009KT 29/18 A2994 RMK A01 T02890176  RH  051%=      5-min Rain = 0
KCL2 200311Z 16008KT 29/18 A2994 RMK A01 T02890176  RH  051%=      5-min Rain = 0
KCL2 200312Z 16008KT 29/18 A2994 RMK A01 T02880177  RH  051%=      5-min Rain = 0
KCL2 200313Z 16007KT 29/18 A2994 RMK A01 T02870176  RH  051%=      5-min Rain = 0
KCL2 200314Z 16008KT 29/18 A2994 RMK A01 T02860176  RH  051%=      5-min Rain = 0
KCL2 200315Z 16008KT 29/18 A2994 RMK A01 T02860176  RH  051%=      5-min Rain = 0
KCL2 200316Z 16008KT 29/18 A2994 RMK A01 T02860176  RH  051%=      5-min Rain = 0
KCL2 200317Z 16009KT 29/18 A2994 RMK A01 T02860176  RH  052%=      5-min Rain = 0
KCL2 200318Z 16008KT 29/18 A2994 RMK A01 T02860176  RH  052%=      5-min Rain = 0
KCL2 200319Z 16008KT 29/18 A2994 RMK A01 T02850176  RH  052%=      5-min Rain = 0
KCL2 200320Z 15008KT 29/18 A2994 RMK A01 T02850177  RH  052%=      5-min Rain = 0
KCL2 200321Z 16009KT 29/18 A2994 RMK A01 T02850177  RH  052%=      5-min Rain = 0
KCL2 200322Z 15009KT 28/18 A2994 RMK A01 T02840176  RH  052%=      5-min Rain = 0
KCL2 200323Z 15009KT 29/18 A2994 RMK A01 T02850176  RH  052%=      5-min Rain = 0
KCL2 200324Z 15010KT 29/18 A2994 RMK A01 T02850177  RH  052%=      5-min Rain = 0
KCL2 200325Z 16010G15KT 29/18 A2994 RMK A01 T02850177  RH  052%=      5-min Rain = 0
KCL2 200326Z 15009KT 29/18 A2994 RMK A01 T02860177  RH  052%=      5-min Rain = 0
KCL2 200327Z 15009KT 29/18 A2994 RMK A01 T02860177  RH  052%=      5-min Rain = 0
KCL2 200328Z 15008KT 29/18 A2995 RMK A01 T02850178  RH  052%=      5-min Rain = 0
KCL2 200329Z 15009KT 28/18 A2995 RMK A01 T02840177  RH  052%=      5-min Rain = 0
KCL2 200330Z 15009KT 28/18 A2995 RMK A01 T02840177  RH  052%=      5-min Rain = 0
KCL2 200331Z 16009KT 28/18 A2995 RMK A01 T02840177  RH  052%=      5-min Rain = 0
KCL2 200332Z 15010KT 28/18 A2995 RMK A01 T02840177  RH  052%=      5-min Rain = 0
KCL2 200333Z 15008KT 28/18 A2995 RMK A01 T02840177  RH  052%=      5-min Rain = 0
KCL2 200334Z 16009KT 28/18 A2995 RMK A01 T02840177  RH  052%=      5-min Rain = 0
KCL2 200335Z 15009KT 28/18 A2995 RMK A01 T02840178  RH  053%=      5-min Rain = 0
KCL2 200336Z 16009KT 28/18 A2995 RMK A01 T02830178  RH  053%=      5-min Rain = 0
KCL2 200337Z 16009KT 28/18 A2995 RMK A01 T02830178  RH  053%=      5-min Rain = 0
KCL2 200338Z 15009KT 28/18 A2995 RMK A01 T02830178  RH  053%=      5-min Rain = 0
KCL2 200339Z 16009KT 28/18 A2995 RMK A01 T02830178  RH  053%=      5-min Rain = 0
KCL2 200340Z 16009KT 28/18 A2995 RMK A01 T02830178  RH  053%=      5-min Rain = 0
KCL2 200341Z 15009KT 28/18 A2995 RMK A01 T02830178  RH  053%=      5-min Rain = 0
KCL2 200342Z 16009KT 28/18 A2995 RMK A01 T02830178  RH  053%=      5-min Rain = 0
KCL2 200343Z 16009KT 28/18 A2995 RMK A01 T02830178  RH  053%=      5-min Rain = 0
KCL2 200344Z 15010KT 28/18 A2995 RMK A01 T02830178  RH  053%=      5-min Rain = 0
KCL2 200345Z 16009KT 28/18 A2995 RMK A01 T02830178  RH  053%=      5-min Rain = 0
KCL2 200346Z 16008KT 28/18 A2995 RMK A01 T02820179  RH  053%=      5-min Rain = 0
KCL2 200347Z 15010KT 28/18 A2995 RMK A01 T02810179  RH  054%=      5-min Rain = 0
KCL2 200348Z 15010KT 28/18 A2995 RMK A01 T02810179  RH  054%=      5-min Rain = 0
KCL2 200349Z 15008KT 28/18 A2995 RMK A01 T02810179  RH  054%=      5-min Rain = 0
KCL2 200350Z 15009KT 28/18 A2995 RMK A01 T02820179  RH  054%=      5-min Rain = 0
KCL2 200351Z 16009KT 28/18 A2996 RMK A01 T02810179  RH  054%=      5-min Rain = 0
KCL2 200352Z 16009KT 28/18 A2996 RMK A01 T02810179  RH  054%=      5-min Rain = 0
KCL2 200353Z 16008KT 28/18 A2996 RMK A01 T02800179  RH  054%=      5-min Rain = 0
KCL2 200354Z 16010KT 28/18 A2996 RMK A01 T02800179  RH  054%=      5-min Rain = 0
KCL2 200355Z 16009KT 28/18 A2996 RMK A01 T02800179  RH  054%=      5-min Rain = 0
KCL2 200356Z 16008KT 28/18 A2996 RMK A01 T02800179  RH  054%=      5-min Rain = 0
KCL2 200357Z 16010KT 28/18 A2996 RMK A01 T02810180  RH  054%=      5-min Rain = 0
KCL2 200358Z 16009KT 28/18 A2996 RMK A01 T02800179  RH  054%=      5-min Rain = 0
KCL2 200359Z 16010KT 28/18 A2996 RMK A01 T02800180  RH  054%=      5-min Rain = 0
KCL2 200400Z 15009KT 28/18 A2996 RMK A01 T02800179  RH  054%=      5-min Rain = 0
KCL2 200401Z 16008KT 28/18 A2996 RMK A01 T02800180  RH  054%=      5-min Rain = 0
KCL2 200402Z 16008KT 28/18 A2996 RMK A01 T02800180  RH  055%=      5-min Rain = 0
KCL2 200403Z 16009KT 28/18 A2996 RMK A01 T02790180  RH  055%=      5-min Rain = 0
KCL2 200404Z 16008KT 28/18 A2996 RMK A01 T02790180  RH  055%=      5-min Rain = 0
KCL2 200405Z 16008KT 28/18 A2996 RMK A01 T02790180  RH  055%=      5-min Rain = 0
KCL2 200406Z 16007KT 28/18 A2996 RMK A01 T02780180  RH  055%=      5-min Rain = 0
KCL2 200407Z 16007KT 28/18 A2996 RMK A01 T02780180  RH  055%=      5-min Rain = 0
KCL2 200408Z 16008KT 28/18 A2996 RMK A01 T02770180  RH  056%=      5-min Rain = 0
KCL2 200409Z 16009KT 28/18 A2996 RMK A01 T02760180  RH  056%=      5-min Rain = 0
KCL2 200410Z 15008KT 28/18 A2996 RMK A01 T02760180  RH  056%=      5-min Rain = 0
KCL2 200411Z 16007KT 28/18 A2996 RMK A01 T02770180  RH  056%=      5-min Rain = 0
KCL2 200412Z 16008KT 28/18 A2996 RMK A01 T02760180  RH  056%=      5-min Rain = 0
KCL2 200413Z 16009KT 28/18 A2996 RMK A01 T02760180  RH  056%=      5-min Rain = 0
KCL2 200414Z 15009KT 28/18 A2996 RMK A01 T02760180  RH  056%=      5-min Rain = 0
KCL2 200415Z 16008KT 28/18 A2996 RMK A01 T02760180  RH  056%=      5-min Rain = 0
KCL2 200416Z 15009KT 28/18 A2996 RMK A01 T02760180  RH  056%=      5-min Rain = 0
KCL2 200417Z 16008KT 28/18 A2996 RMK A01 T02760180  RH  056%=      5-min Rain = 0
KCL2 200418Z 16008KT 28/18 A2996 RMK A01 T02760181  RH  056%=      5-min Rain = 0
KCL2 200419Z 15008KT 28/18 A2996 RMK A01 T02750181  RH  056%=      5-min Rain = 0
KCL2 200420Z 15007KT 28/18 A2996 RMK A01 T02750181  RH  056%=      5-min Rain = 0
KCL2 200421Z 15008KT 28/18 A2996 RMK A01 T02750181  RH  057%=      5-min Rain = 0
KCL2 200422Z 15009KT 27/18 A2996 RMK A01 T02740181  RH  057%=      5-min Rain = 0
KCL2 200423Z 15008KT 27/18 A2996 RMK A01 T02740181  RH  057%=      5-min Rain = 0
KCL2 200424Z 15007KT 27/18 A2996 RMK A01 T02740180  RH  057%=      5-min Rain = 0
KCL2 200425Z 15007KT 27/18 A2996 RMK A01 T02740180  RH  057%=      5-min Rain = 0
KCL2 200426Z 15008KT 27/18 A2996 RMK A01 T02740181  RH  057%=      5-min Rain = 0
KCL2 200427Z 15007KT 27/18 A2996 RMK A01 T02740181  RH  057%=      5-min Rain = 0
KCL2 200428Z 15008KT 27/18 A2996 RMK A01 T02730181  RH  057%=      5-min Rain = 0
KCL2 200429Z 15008KT 27/18 A2996 RMK A01 T02730181  RH  057%=      5-min Rain = 0
KCL2 200430Z 15006KT 27/18 A2996 RMK A01 T02730181  RH  057%=      5-min Rain = 0
KCL2 200431Z 15007KT 27/18 A2996 RMK A01 T02720181  RH  058%=      5-min Rain = 0
KCL2 200432Z 15007KT 27/18 A2996 RMK A01 T02720181  RH  058%=      5-min Rain = 0
KCL2 200433Z 15008KT 27/18 A2996 RMK A01 T02710181  RH  058%=      5-min Rain = 0
KCL2 200434Z 16008KT 27/18 A2996 RMK A01 T02710181  RH  058%=      5-min Rain = 0
KCL2 200435Z 16008KT 27/18 A2996 RMK A01 T02710181  RH  058%=      5-min Rain = 0
KCL2 200436Z 15008KT 27/18 A2996 RMK A01 T02700181  RH  058%=      5-min Rain = 0
KCL2 200437Z 16008KT 27/18 A2996 RMK A01 T02710182  RH  058%=      5-min Rain = 0
KCL2 200438Z 16010KT 27/18 A2996 RMK A01 T02700181  RH  058%=      5-min Rain = 0
KCL2 200439Z 16008KT 27/18 A2996 RMK A01 T02700181  RH  058%=      5-min Rain = 0
KCL2 200440Z 16008KT 27/18 A2996 RMK A01 T02700181  RH  058%=      5-min Rain = 0
KCL2 200441Z 16009KT 27/18 A2997 RMK A01 T02700181  RH  058%=      5-min Rain = 0
KCL2 200442Z 16008KT 27/18 A2996 RMK A01 T02700181  RH  058%=      5-min Rain = 0
KCL2 200443Z 16008KT 27/18 A2996 RMK A01 T02700181  RH  058%=      5-min Rain = 0
KCL2 200444Z 16008KT 27/18 A2996 RMK A01 T02700182  RH  058%=      5-min Rain = 0
KCL2 200445Z 16008KT 27/18 A2997 RMK A01 T02700182  RH  058%=      5-min Rain = 0
KCL2 200446Z 15009KT 27/18 A2996 RMK A01 T02700182  RH  059%=      5-min Rain = 0
KCL2 200447Z 16008KT 27/18 A2997 RMK A01 T02690182  RH  059%=      5-min Rain = 0
KCL2 200448Z 16009KT 27/18 A2997 RMK A01 T02690182  RH  059%=      5-min Rain = 0
KCL2 200449Z 16008KT 27/18 A2997 RMK A01 T02690182  RH  059%=      5-min Rain = 0
KCL2 200450Z 16008KT 27/18 A2997 RMK A01 T02690182  RH  059%=      5-min Rain = 0
KCL2 200451Z 16009KT 27/18 A2997 RMK A01 T02680182  RH  059%=      5-min Rain = 0
KCL2 200452Z 16009KT 27/18 A2997 RMK A01 T02680182  RH  059%=      5-min Rain = 0
KCL2 200453Z 16010KT 27/18 A2997 RMK A01 T02690182  RH  059%=      5-min Rain = 0
KCL2 200454Z 16009KT 27/18 A2997 RMK A01 T02690182  RH  059%=      5-min Rain = 0
KCL2 200455Z 16009KT 27/18 A2997 RMK A01 T02690182  RH  059%=      5-min Rain = 0
KCL2 200456Z 16010KT 27/18 A2996 RMK A01 T02690182  RH  059%=      5-min Rain = 0
KCL2 200457Z 16010KT 27/18 A2996 RMK A01 T02690182  RH  059%=      5-min Rain = 0
KCL2 200458Z 16009KT 27/18 A2997 RMK A01 T02690182  RH  059%=      5-min Rain = 0
KCL2 200459Z 16010KT 27/18 A2996 RMK A01 T02690182  RH  059%=      5-min Rain = 0

Page generated in 0.1292 seconds.